Wetterdaten: Sonntag, 14.02.2021
Datum Zeit Temp. Aussen Temp. o. S. Temp +5cm Feuchte Auss Luftdruck Regen Sonnenschein Regendauer Solar Windben Empfang
14.02.2021 00:00 -5,1 C -5,6 C -8,8 C 80 % 1039,9 hPa 0,0 l/m 0 min 0 min 0 W/m 0,0 km/h (0 Bft) 95,65 %
14.02.2021 00:02 -5,1 C -5,6 C -8,8 C 80 % 1039,8 hPa 0,0 l/m 0 min 0 min 0 W/m 0,0 km/h (0 Bft) 14,29 %
14.02.2021 00:04 -5,1 C -5,6 C -8,8 C 80 % 1039,8 hPa 0,0 l/m 0 min 0 min 0 W/m 0,0 km/h (0 Bft) 74,29 %
14.02.2021 00:08 -5,1 C -5,6 C -8,8 C 80 % 1039,7 hPa 0,0 l/m 0 min 0 min 0 W/m 0,0 km/h (0 Bft) 96,00 %
14.02.2021 00:10 -5,1 C -5,6 C -8,8 C 80 % 1039,7 hPa 0,0 l/m 0 min 0 min 0 W/m 0,0 km/h (0 Bft) 95,65 %
14.02.2021 00:12 -5,1 C -5,6 C -8,8 C 80 % 1039,6 hPa 0,0 l/m 0 min 0 min 0 W/m 0,0 km/h (0 Bft) 93,62 %
14.02.2021 00:14 -5,1 C -5,6 C -8,8 C 80 % 1039,6 hPa 0,0 l/m 0 min 0 min 0 W/m 0,0 km/h (0 Bft) 93,62 %
14.02.2021 00:16 -5,1 C -5,6 C -8,8 C 80 % 1039,6 hPa 0,0 l/m 0 min 0 min 0 W/m 0,0 km/h (0 Bft) 95,74 %
14.02.2021 00:18 -5,1 C -5,6 C -8,8 C 80 % 1039,6 hPa 0,0 l/m 0 min 0 min 0 W/m 6,4 km/h (2 Bft) 95,74 %
14.02.2021 00:20 -5,1 C -5,6 C -8,8 C 80 % 1039,6 hPa 0,0 l/m 0 min 0 min 0 W/m 0,0 km/h (0 Bft) 95,74 %
14.02.2021 00:22 -5,0 C -5,6 C -8,8 C 80 % 1039,6 hPa 0,0 l/m 0 min 0 min 0 W/m 0,0 km/h (0 Bft) 95,12 %
14.02.2021 00:24 -5,0 C -5,0 C -8,8 C 80 % 1039,6 hPa 0,0 l/m 0 min 0 min 0 W/m 0,0 km/h (0 Bft) 95,65 %
14.02.2021 00:26 -4,9 C -5,0 C -8,8 C 80 % 1039,6 hPa 0,0 l/m 0 min 0 min 0 W/m 0,0 km/h (0 Bft) 95,74 %
14.02.2021 00:28 -4,9 C -5,0 C -8,3 C 80 % 1039,6 hPa 0,0 l/m 0 min 0 min 0 W/m 0,0 km/h (0 Bft) 97,87 %
14.02.2021 00:30 -4,9 C -5,0 C -8,3 C 80 % 1039,5 hPa 0,0 l/m 0 min 0 min 0 W/m 3,2 km/h (1 Bft) 95,74 %
14.02.2021 00:32 -4,8 C -5,0 C -8,8 C 80 % 1039,4 hPa 0,0 l/m 0 min 0 min 0 W/m 0,0 km/h (0 Bft) 96,23 %
14.02.2021 00:34 -4,8 C -5,0 C -8,3 C 79 % 1039,4 hPa 0,0 l/m 0 min 0 min 0 W/m 0,0 km/h (0 Bft) 97,83 %
14.02.2021 00:36 -4,8 C -5,0 C -8,3 C 79 % 1039,4 hPa 0,0 l/m 0 min 0 min 0 W/m 0,0 km/h (0 Bft) 97,87 %
14.02.2021 00:38 -4,7 C -5,0 C -8,3 C 79 % 1039,3 hPa 0,0 l/m 0 min 0 min 0 W/m 0,0 km/h (0 Bft) 97,87 %
14.02.2021 00:40 -4,6 C -5,0 C -8,3 C 79 % 1039,2 hPa 0,0 l/m 0 min 0 min 0 W/m 0,0 km/h (0 Bft) 95,74 %
14.02.2021 00:42 -4,6 C -5,0 C -8,3 C 79 % 1039,2 hPa 0,0 l/m 0 min 0 min 0 W/m 0,0 km/h (0 Bft) 97,87 %
14.02.2021 00:44 -4,5 C -4,4 C -8,3 C 79 % 1039,1 hPa 0,0 l/m 0 min 0 min 0 W/m 0,0 km/h (0 Bft) 97,87 %
14.02.2021 00:46 -4,5 C -5,0 C -8,3 C 79 % 1039,1 hPa 0,0 l/m 0 min 0 min 0 W/m 3,2 km/h (1 Bft) 100,00 %
14.02.2021 00:48 -4,5 C -4,4 C -8,3 C 78 % 1039,1 hPa 0,0 l/m 0 min 0 min 0 W/m 0,0 km/h (0 Bft) 97,87 %
14.02.2021 00:50 -4,5 C -4,4 C -8,3 C 78 % 1039,0 hPa 0,0 l/m 0 min 0 min 0 W/m 0,0 km/h (0 Bft) 100,00 %
14.02.2021 00:52 -4,4 C -4,4 C -8,3 C 78 % 1039,0 hPa 0,0 l/m 0 min 0 min 0 W/m 0,0 km/h (0 Bft) 95,74 %
14.02.2021 00:54 -4,4 C -4,4 C -8,3 C 78 % 1039,0 hPa 0,0 l/m 0 min 0 min 0 W/m 3,2 km/h (1 Bft) 97,87 %
14.02.2021 00:56 -4,3 C -4,4 C -8,3 C 78 % 1039,1 hPa 0,0 l/m 0 min 0 min 0 W/m 3,2 km/h (1 Bft) 95,74 %
14.02.2021 00:58 -4,3 C -4,4 C -8,3 C 78 % 1039,0 hPa 0,0 l/m 0 min 0 min 0 W/m 0,0 km/h (0 Bft) 97,83 %
14.02.2021 01:00 -4,2 C -4,4 C -8,3 C 77 % 1039,0 hPa 0,0 l/m 0 min 0 min 0 W/m 3,2 km/h (1 Bft) 97,56 %
14.02.2021 01:02 -4,2 C -4,4 C -8,3 C 77 % 1038,9 hPa 0,0 l/m 0 min 0 min 0 W/m 3,2 km/h (1 Bft) 98,11 %
14.02.2021 01:04 -4,2 C -4,4 C -8,3 C 77 % 1039,0 hPa 0,0 l/m 0 min 0 min 0 W/m 3,2 km/h (1 Bft) 97,56 %
14.02.2021 01:06 -4,1 C -4,4 C -8,3 C 77 % 1038,8 hPa 0,0 l/m 0 min 0 min 0 W/m 16,1 km/h (3 Bft) 96,36 %
14.02.2021 01:08 -4,1 C -4,4 C -7,7 C 77 % 1038,9 hPa 0,0 l/m 0 min 0 min 0 W/m 9,7 km/h (2 Bft) 97,87 %
14.02.2021 01:10 -4,1 C -4,4 C -8,3 C 77 % 1038,8 hPa 0,0 l/m 0 min 0 min 0 W/m 3,2 km/h (1 Bft) 95,65 %
14.02.2021 01:12 -4,1 C -4,4 C -8,3 C 77 % 1038,8 hPa 0,0 l/m 0 min 0 min 0 W/m 3,2 km/h (1 Bft) 97,87 %
14.02.2021 01:14 -4,1 C -4,4 C -8,3 C 77 % 1038,8 hPa 0,0 l/m 0 min 0 min 0 W/m 9,7 km/h (2 Bft) 95,74 %
14.02.2021 01:16 -4,1 C -4,4 C -8,3 C 76 % 1038,8 hPa 0,0 l/m 0 min 0 min 0 W/m 3,2 km/h (1 Bft) 95,74 %
14.02.2021 01:18 -4,1 C -4,4 C -8,3 C 76 % 1038,8 hPa 0,0 l/m 0 min 0 min 0 W/m 0,0 km/h (0 Bft) 97,87 %
14.02.2021 01:20 -4,1 C -4,4 C -8,3 C 77 % 1038,8 hPa 0,0 l/m 0 min 0 min 0 W/m 0,0 km/h (0 Bft) 95,65 %
14.02.2021 01:22 -4,1 C -4,4 C -8,3 C 77 % 1038,8 hPa 0,0 l/m 0 min 0 min 0 W/m 6,4 km/h (2 Bft) 97,87 %
14.02.2021 01:24 -4,1 C -4,4 C -8,3 C 76 % 1038,8 hPa 0,0 l/m 0 min 0 min 0 W/m 6,4 km/h (2 Bft) 97,87 %
14.02.2021 01:26 -4,1 C -4,4 C -8,3 C 77 % 1038,9 hPa 0,0 l/m 0 min 0 min 0 W/m 3,2 km/h (1 Bft) 95,74 %
14.02.2021 01:28 -4,1 C -4,4 C -8,3 C 77 % 1039,0 hPa 0,0 l/m 0 min 0 min 0 W/m 3,2 km/h (1 Bft) 97,87 %
14.02.2021 01:30 -4,1 C -4,4 C -8,3 C 77 % 1039,0 hPa 0,0 l/m 0 min 0 min 0 W/m 0,0 km/h (0 Bft) 97,87 %
14.02.2021 01:32 -4,1 C -4,4 C -8,3 C 77 % 1039,1 hPa 0,0 l/m 0 min 0 min 0 W/m 6,4 km/h (2 Bft) 97,83 %
14.02.2021 01:34 -4,1 C -4,4 C -8,3 C 76 % 1039,1 hPa 0,0 l/m 0 min 0 min 0 W/m 0,0 km/h (0 Bft) 97,87 %
14.02.2021 01:36 -4,1 C -5,0 C -8,3 C 76 % 1039,2 hPa 0,0 l/m 0 min 0 min 0 W/m 0,0 km/h (0 Bft) 97,87 %
14.02.2021 01:38 -4,1 C -5,0 C -8,3 C 76 % 1039,2 hPa 0,0 l/m 0 min 0 min 0 W/m 0,0 km/h (0 Bft) 97,87 %
14.02.2021 01:40 -4,2 C -5,0 C -8,3 C 77 % 1039,3 hPa 0,0 l/m 0 min 0 min 0 W/m 0,0 km/h (0 Bft) 100,00 %
14.02.2021 01:42 -4,2 C -5,0 C -8,3 C 77 % 1039,3 hPa 0,0 l/m 0 min 0 min 0 W/m 0,0 km/h (0 Bft) 97,87 %
14.02.2021 01:44 -4,2 C -5,0 C -8,3 C 77 % 1039,3 hPa 0,0 l/m 0 min 0 min 0 W/m 0,0 km/h (0 Bft) 100,00 %
14.02.2021 01:46 -4,3 C -5,0 C -8,3 C 77 % 1039,3 hPa 0,0 l/m 0 min 0 min 0 W/m 0,0 km/h (0 Bft) 95,74 %
14.02.2021 01:48 -4,3 C -5,0 C -8,3 C 77 % 1039,3 hPa 0,0 l/m 0 min 0 min 0 W/m 0,0 km/h (0 Bft) 100,00 %
14.02.2021 01:50 -4,4 C -5,0 C -8,3 C 77 % 1039,3 hPa 0,0 l/m 0 min 0 min 0 W/m 0,0 km/h (0 Bft) 97,87 %
14.02.2021 01:52 -4,4 C -5,0 C -8,3 C 77 % 1039,3 hPa 0,0 l/m 0 min 0 min 0 W/m 0,0 km/h (0 Bft) 100,00 %
14.02.2021 01:54 -4,4 C -5,0 C -8,3 C 77 % 1039,4 hPa 0,0 l/m 0 min 0 min 0 W/m 0,0 km/h (0 Bft) 100,00 %
14.02.2021 01:56 -4,4 C -5,0 C -8,8 C 77 % 1039,5 hPa 0,0 l/m 0 min 0 min 0 W/m 3,2 km/h (1 Bft) 100,00 %
14.02.2021 01:58 -4,5 C -5,6 C -8,8 C 77 % 1039,5 hPa 0,0 l/m 0 min 0 min 0 W/m 0,0 km/h (0 Bft) 100,00 %
14.02.2021 02:00 -4,5 C -5,6 C -8,8 C 77 % 1039,5 hPa 0,0 l/m 0 min 0 min 0 W/m 3,2 km/h (1 Bft) 97,87 %
14.02.2021 02:02 -4,5 C -5,6 C -8,8 C 77 % 1039,6 hPa 0,0 l/m 0 min 0 min 0 W/m 0,0 km/h (0 Bft) 100,00 %
14.02.2021 02:04 -4,5 C -5,6 C -8,8 C 77 % 1039,7 hPa 0,0 l/m 0 min 0 min 0 W/m 0,0 km/h (0 Bft) 100,00 %
14.02.2021 02:06 -4,6 C -5,6 C -8,8 C 77 % 1039,8 hPa 0,0 l/m 0 min 0 min 0 W/m 0,0 km/h (0 Bft) 97,87 %
14.02.2021 02:08 -4,6 C -5,6 C -8,8 C 77 % 1039,8 hPa 0,0 l/m 0 min 0 min 0 W/m 0,0 km/h (0 Bft) 100,00 %
14.02.2021 02:10 -4,6 C -5,6 C -8,8 C 77 % 1039,8 hPa 0,0 l/m 0 min 0 min 0 W/m 3,2 km/h (1 Bft) 100,00 %
14.02.2021 02:12 -4,6 C -5,6 C -8,8 C 77 % 1039,9 hPa 0,0 l/m 0 min 0 min 0 W/m 6,4 km/h (2 Bft) 100,00 %
14.02.2021 02:14 -4,7 C -5,6 C -8,8 C 78 % 1039,9 hPa 0,0 l/m 0 min 0 min 0 W/m 0,0 km/h (0 Bft) 100,00 %
14.02.2021 02:16 -4,7 C -5,6 C -8,8 C 78 % 1039,9 hPa 0,0 l/m 0 min 0 min 0 W/m 3,2 km/h (1 Bft) 97,87 %
14.02.2021 02:18 -4,8 C -5,6 C -8,8 C 78 % 1039,9 hPa 0,0 l/m 0 min 0 min 0 W/m 3,2 km/h (1 Bft) 97,87 %
14.02.2021 02:20 -4,8 C -5,6 C -8,8 C 78 % 1040,0 hPa 0,0 l/m 0 min 0 min 0 W/m 0,0 km/h (0 Bft) 97,87 %
14.02.2021 02:22 -4,8 C -5,6 C -8,8 C 78 % 1039,9 hPa 0,0 l/m 0 min 0 min 0 W/m 0,0 km/h (0 Bft) 97,83 %
14.02.2021 02:24 -4,9 C -5,6 C -8,8 C 78 % 1040,0 hPa 0,0 l/m 0 min 0 min 0 W/m 0,0 km/h (0 Bft) 97,87 %
14.02.2021 02:26 -4,9 C -5,6 C -8,8 C 78 % 1040,0 hPa 0,0 l/m 0 min 0 min 0 W/m 0,0 km/h (0 Bft) 97,87 %
14.02.2021 02:28 -4,9 C -5,6 C -8,8 C 78 % 1040,0 hPa 0,0 l/m 0 min 0 min 0 W/m 0,0 km/h (0 Bft) 97,87 %
14.02.2021 02:30 -5,0 C -5,6 C -8,8 C 78 % 1040,0 hPa 0,0 l/m 0 min 0 min 0 W/m 0,0 km/h (0 Bft) 97,87 %
14.02.2021 02:32 -5,0 C -5,6 C -8,8 C 78 % 1040,0 hPa 0,0 l/m 0 min 0 min 0 W/m 3,2 km/h (1 Bft) 95,74 %
14.02.2021 02:34 -5,0 C -5,6 C -8,8 C 78 % 1040,0 hPa 0,0 l/m 0 min 0 min 0 W/m 0,0 km/h (0 Bft) 95,65 %
14.02.2021 02:36 -5,0 C -5,6 C -8,8 C 78 % 1040,0 hPa 0,0 l/m 0 min 0 min 0 W/m 0,0 km/h (0 Bft) 97,87 %
14.02.2021 02:38 -5,0 C -5,6 C -8,8 C 78 % 1040,0 hPa 0,0 l/m 0 min 0 min 0 W/m 3,2 km/h (1 Bft) 97,87 %
14.02.2021 02:40 -5,0 C -5,6 C -8,8 C 78 % 1040,0 hPa 0,0 l/m 0 min 0 min 0 W/m 0,0 km/h (0 Bft) 97,87 %
14.02.2021 02:42 -5,1 C -5,6 C -8,8 C 78 % 1040,0 hPa 0,0 l/m 0 min 0 min 0 W/m 0,0 km/h (0 Bft) 97,87 %
14.02.2021 02:44 -5,1 C -5,6 C -8,8 C 79 % 1040,0 hPa 0,0 l/m 0 min 0 min 0 W/m 0,0 km/h (0 Bft) 97,87 %
14.02.2021 02:46 -5,0 C -5,6 C -8,8 C 79 % 1040,0 hPa 0,0 l/m 0 min 0 min 0 W/m 3,2 km/h (1 Bft) 97,83 %
14.02.2021 02:48 -5,1 C -5,6 C -8,8 C 79 % 1040,0 hPa 0,0 l/m 0 min 0 min 0 W/m 3,2 km/h (1 Bft) 97,87 %
14.02.2021 02:50 -5,0 C -5,6 C -8,8 C 79 % 1040,0 hPa 0,0 l/m 0 min 0 min 0 W/m 3,2 km/h (1 Bft) 97,87 %
14.02.2021 02:52 -5,0 C -5,6 C -8,8 C 79 % 1040,0 hPa 0,0 l/m 0 min 0 min 0 W/m 3,2 km/h (1 Bft) 97,87 %
14.02.2021 02:54 -5,0 C -5,6 C -8,8 C 79 % 1040,0 hPa 0,0 l/m 0 min 0 min 0 W/m 0,0 km/h (0 Bft) 97,87 %
14.02.2021 02:56 -5,0 C -5,6 C -8,8 C 79 % 1039,9 hPa 0,0 l/m 0 min 0 min 0 W/m 3,2 km/h (1 Bft) 100,00 %
14.02.2021 02:58 -5,0 C -5,6 C -8,8 C 79 % 1039,9 hPa 0,0 l/m 0 min 0 min 0 W/m 0,0 km/h (0 Bft) 100,00 %
14.02.2021 03:00 -5,0 C -5,6 C -8,8 C 79 % 1039,8 hPa 0,0 l/m 0 min 0 min 0 W/m 0,0 km/h (0 Bft) 100,00 %
14.02.2021 03:02 -5,0 C -5,6 C -8,8 C 79 % 1039,8 hPa 0,0 l/m 0 min 0 min 0 W/m 0,0 km/h (0 Bft) 100,00 %
14.02.2021 03:04 -5,0 C -5,6 C -8,8 C 79 % 1039,7 hPa 0,0 l/m 0 min 0 min 0 W/m 0,0 km/h (0 Bft) 100,00 %
14.02.2021 03:06 -5,0 C -5,6 C -8,8 C 79 % 1039,6 hPa 0,0 l/m 0 min 0 min 0 W/m 0,0 km/h (0 Bft) 100,00 %
14.02.2021 03:08 -4,9 C -5,6 C -8,8 C 79 % 1039,6 hPa 0,0 l/m 0 min 0 min 0 W/m 0,0 km/h (0 Bft) 100,00 %
14.02.2021 03:10 -4,9 C -5,0 C -8,8 C 79 % 1039,6 hPa 0,0 l/m 0 min 0 min 0 W/m 0,0 km/h (0 Bft) 100,00 %
14.02.2021 03:12 -4,9 C -5,0 C -8,8 C 79 % 1039,6 hPa 0,0 l/m 0 min 0 min 0 W/m 0,0 km/h (0 Bft) 100,00 %
14.02.2021 03:14 -4,9 C -5,0 C -8,8 C 79 % 1039,6 hPa 0,0 l/m 0 min 0 min 0 W/m 0,0 km/h (0 Bft) 100,00 %
14.02.2021 03:16 -4,9 C -5,0 C -8,8 C 79 % 1039,6 hPa 0,0 l/m 0 min 0 min 0 W/m 0,0 km/h (0 Bft) 100,00 %
14.02.2021 03:18 -4,8 C -5,0 C -8,8 C 79 % 1039,6 hPa 0,0 l/m 0 min 0 min 0 W/m 3,2 km/h (1 Bft) 100,00 %
14.02.2021 03:20 -4,8 C -5,0 C -8,8 C 79 % 1039,7 hPa 0,0 l/m 0 min 0 min 0 W/m 3,2 km/h (1 Bft) 100,00 %
14.02.2021 03:22 -4,7 C -5,0 C -8,8 C 79 % 1039,6 hPa 0,0 l/m 0 min 0 min 0 W/m 6,4 km/h (2 Bft) 100,00 %
14.02.2021 03:24 -4,7 C -5,0 C -8,3 C 79 % 1039,6 hPa 0,0 l/m 0 min 0 min 0 W/m 6,4 km/h (2 Bft) 100,00 %
14.02.2021 03:26 -4,7 C -5,0 C -8,3 C 79 % 1039,5 hPa 0,0 l/m 0 min 0 min 0 W/m 3,2 km/h (1 Bft) 100,00 %
14.02.2021 03:28 -4,7 C -5,0 C -8,3 C 79 % 1039,4 hPa 0,0 l/m 0 min 0 min 0 W/m 0,0 km/h (0 Bft) 97,87 %
14.02.2021 03:30 -4,6 C -5,0 C -8,3 C 78 % 1039,4 hPa 0,0 l/m 0 min 0 min 0 W/m 0,0 km/h (0 Bft) 100,00 %
14.02.2021 03:32 -4,6 C -5,0 C -8,3 C 78 % 1039,5 hPa 0,0 l/m 0 min 0 min 0 W/m 3,2 km/h (1 Bft) 100,00 %
14.02.2021 03:34 -4,6 C -5,0 C -8,3 C 78 % 1039,5 hPa 0,0 l/m 0 min 0 min 0 W/m 6,4 km/h (2 Bft) 95,74 %
14.02.2021 03:36 -4,6 C -5,0 C -8,3 C 78 % 1039,5 hPa 0,0 l/m 0 min 0 min 0 W/m 0,0 km/h (0 Bft) 97,87 %
14.02.2021 03:38 -4,6 C -5,0 C -8,8 C 78 % 1039,4 hPa 0,0 l/m 0 min 0 min 0 W/m 0,0 km/h (0 Bft) 100,00 %
14.02.2021 03:40 -4,6 C -5,0 C -8,8 C 78 % 1039,4 hPa 0,0 l/m 0 min 0 min 0 W/m 0,0 km/h (0 Bft) 100,00 %
14.02.2021 03:42 -4,6 C -5,0 C -8,8 C 78 % 1039,4 hPa 0,0 l/m 0 min 0 min 0 W/m 0,0 km/h (0 Bft) 97,87 %
14.02.2021 03:44 -4,7 C -5,0 C -8,8 C 78 % 1039,4 hPa 0,0 l/m 0 min 0 min 0 W/m 0,0 km/h (0 Bft) 95,65 %
14.02.2021 03:46 -4,7 C -5,0 C -8,8 C 78 % 1039,4 hPa 0,0 l/m 0 min 0 min 0 W/m 0,0 km/h (0 Bft) 95,74 %
14.02.2021 03:48 -4,7 C -5,0 C -8,8 C 78 % 1039,3 hPa 0,0 l/m 0 min 0 min 0 W/m 3,2 km/h (1 Bft) 93,62 %
14.02.2021 03:50 -4,7 C -5,0 C -8,8 C 78 % 1039,4 hPa 0,0 l/m 0 min 0 min 0 W/m 3,2 km/h (1 Bft) 95,74 %
14.02.2021 03:52 -4,7 C -5,0 C -8,8 C 78 % 1039,3 hPa 0,0 l/m 0 min 0 min 0 W/m 0,0 km/h (0 Bft) 93,62 %
14.02.2021 03:54 -4,7 C -5,6 C -8,8 C 78 % 1039,3 hPa 0,0 l/m 0 min 0 min 0 W/m 0,0 km/h (0 Bft) 93,62 %
14.02.2021 03:56 -4,7 C -5,6 C -8,8 C 78 % 1039,3 hPa 0,0 l/m 0 min 0 min 0 W/m 0,0 km/h (0 Bft) 95,65 %
14.02.2021 03:58 -4,7 C -5,6 C -8,8 C 78 % 1039,3 hPa 0,0 l/m 0 min 0 min 0 W/m 0,0 km/h (0 Bft) 95,74 %
14.02.2021 04:00 -4,8 C -5,6 C -8,8 C 79 % 1039,3 hPa 0,0 l/m 0 min 0 min 0 W/m 0,0 km/h (0 Bft) 95,74 %
14.02.2021 04:02 -4,8 C -5,0 C -8,8 C 79 % 1039,2 hPa 0,0 l/m 0 min 0 min 0 W/m 3,2 km/h (1 Bft) 100,00 %
14.02.2021 04:04 -4,7 C -5,0 C -8,8 C 79 % 1039,1 hPa 0,0 l/m 0 min 0 min 0 W/m 0,0 km/h (0 Bft) 97,87 %
14.02.2021 04:06 -4,7 C -5,0 C -8,8 C 79 % 1039,1 hPa 0,0 l/m 0 min 0 min 0 W/m 0,0 km/h (0 Bft) 93,48 %
14.02.2021 04:08 -4,7 C -5,0 C -8,8 C 79 % 1039,1 hPa 0,0 l/m 0 min 0 min 0 W/m 6,4 km/h (2 Bft) 95,74 %
14.02.2021 04:10 -4,7 C -5,0 C -8,8 C 79 % 1039,1 hPa 0,0 l/m 0 min 0 min 0 W/m 0,0 km/h (0 Bft) 95,74 %
14.02.2021 04:12 -4,7 C -5,0 C -8,8 C 79 % 1039,1 hPa 0,0 l/m 0 min 0 min 0 W/m 0,0 km/h (0 Bft) 95,74 %
14.02.2021 04:14 -4,7 C -5,0 C -8,8 C 79 % 1039,0 hPa 0,0 l/m 0 min 0 min 0 W/m 3,2 km/h (1 Bft) 95,74 %
14.02.2021 04:16 -4,7 C -5,0 C -8,8 C 79 % 1039,0 hPa 0,0 l/m 0 min 0 min 0 W/m 3,2 km/h (1 Bft) 93,62 %
14.02.2021 04:18 -4,7 C -5,0 C -8,8 C 79 % 1039,0 hPa 0,0 l/m 0 min 0 min 0 W/m 0,0 km/h (0 Bft) 93,62 %
14.02.2021 04:20 -4,7 C -5,0 C -8,3 C 79 % 1039,1 hPa 0,0 l/m 0 min 0 min 0 W/m 6,4 km/h (2 Bft) 95,65 %
14.02.2021 04:22 -4,6 C -5,0 C -8,3 C 79 % 1039,0 hPa 0,0 l/m 0 min 0 min 0 W/m 0,0 km/h (0 Bft) 95,74 %
14.02.2021 04:24 -4,6 C -5,0 C -8,3 C 79 % 1039,0 hPa 0,0 l/m 0 min 0 min 0 W/m 0,0 km/h (0 Bft) 91,49 %
14.02.2021 04:26 -4,6 C -5,0 C -8,3 C 78 % 1039,0 hPa 0,0 l/m 0 min 0 min 0 W/m 0,0 km/h (0 Bft) 97,87 %
14.02.2021 04:28 -4,6 C -5,0 C -8,3 C 78 % 1039,0 hPa 0,0 l/m 0 min 0 min 0 W/m 3,2 km/h (1 Bft) 95,74 %
14.02.2021 04:30 -4,6 C -5,0 C -8,3 C 78 % 1038,9 hPa 0,0 l/m 0 min 0 min 0 W/m 3,2 km/h (1 Bft) 95,74 %
14.02.2021 04:32 -4,6 C -5,0 C -8,3 C 78 % 1038,9 hPa 0,0 l/m 0 min 0 min 0 W/m 0,0 km/h (0 Bft) 97,83 %
14.02.2021 04:34 -4,6 C -5,0 C -8,3 C 78 % 1039,0 hPa 0,0 l/m 0 min 0 min 0 W/m 3,2 km/h (1 Bft) 95,74 %
14.02.2021 04:36 -4,6 C -5,0 C -8,3 C 78 % 1039,0 hPa 0,0 l/m 0 min 0 min 0 W/m 0,0 km/h (0 Bft) 95,74 %
14.02.2021 04:38 -4,6 C -5,0 C -8,3 C 78 % 1039,0 hPa 0,0 l/m 0 min 0 min 0 W/m 3,2 km/h (1 Bft) 91,49 %
14.02.2021 04:40 -4,6 C -5,0 C -8,3 C 78 % 1039,0 hPa 0,0 l/m 0 min 0 min 0 W/m 0,0 km/h (0 Bft) 95,74 %
14.02.2021 04:42 -4,6 C -5,0 C -8,3 C 78 % 1039,0 hPa 0,0 l/m 0 min 0 min 0 W/m 0,0 km/h (0 Bft) 93,48 %
14.02.2021 04:44 -4,6 C -5,0 C -8,3 C 78 % 1039,1 hPa 0,0 l/m 0 min 0 min 0 W/m 3,2 km/h (1 Bft) 95,74 %
14.02.2021 04:46 -4,6 C -5,0 C -8,3 C 78 % 1039,1 hPa 0,0 l/m 0 min 0 min 0 W/m 0,0 km/h (0 Bft) 93,62 %
14.02.2021 04:48 -4,6 C -5,0 C -8,3 C 78 % 1039,1 hPa 0,0 l/m 0 min 0 min 0 W/m 6,4 km/h (2 Bft) 93,62 %
14.02.2021 04:50 -4,6 C -5,0 C -8,3 C 78 % 1039,0 hPa 0,0 l/m 0 min 0 min 0 W/m 0,0 km/h (0 Bft) 95,74 %
14.02.2021 04:52 -4,6 C -5,0 C -8,3 C 78 % 1039,0 hPa 0,0 l/m 0 min 0 min 0 W/m 3,2 km/h (1 Bft) 93,62 %
14.02.2021 04:54 -4,6 C -5,0 C -8,8 C 78 % 1039,0 hPa 0,0 l/m 0 min 0 min 0 W/m 0,0 km/h (0 Bft) 93,48 %
14.02.2021 04:56 -4,6 C -5,0 C -8,3 C 78 % 1038,9 hPa 0,0 l/m 0 min 0 min 0 W/m 0,0 km/h (0 Bft) 95,74 %
14.02.2021 04:58 -4,6 C -5,0 C -8,3 C 78 % 1038,9 hPa 0,0 l/m 0 min 0 min 0 W/m 6,4 km/h (2 Bft) 95,74 %
14.02.2021 05:00 -4,6 C -5,0 C -8,8 C 78 % 1038,9 hPa 0,0 l/m 0 min 0 min 0 W/m 0,0 km/h (0 Bft) 97,87 %
14.02.2021 05:02 -4,6 C -5,0 C -8,8 C 78 % 1038,9 hPa 0,0 l/m 0 min 0 min 0 W/m 6,4 km/h (2 Bft) 95,74 %
14.02.2021 05:04 -4,6 C -5,0 C -8,8 C 78 % 1038,9 hPa 0,0 l/m 0 min 0 min 0 W/m 6,4 km/h (2 Bft) 97,87 %
14.02.2021 05:06 -4,6 C -5,0 C -8,8 C 78 % 1038,9 hPa 0,0 l/m 0 min 0 min 0 W/m 0,0 km/h (0 Bft) 97,83 %
14.02.2021 05:08 -4,6 C -5,0 C -8,8 C 78 % 1038,9 hPa 0,0 l/m 0 min 0 min 0 W/m 6,4 km/h (2 Bft) 97,87 %
14.02.2021 05:10 -4,7 C -5,0 C -8,8 C 78 % 1038,8 hPa 0,0 l/m 0 min 0 min 0 W/m 12,9 km/h (3 Bft) 95,74 %
14.02.2021 05:12 -4,7 C -5,0 C -8,8 C 78 % 1038,8 hPa 0,0 l/m 0 min 0 min 0 W/m 3,2 km/h (1 Bft) 97,87 %
14.02.2021 05:14 -4,7 C -5,0 C -8,8 C 78 % 1038,8 hPa 0,0 l/m 0 min 0 min 0 W/m 6,4 km/h (2 Bft) 97,87 %
14.02.2021 05:16 -4,7 C -5,0 C -8,8 C 78 % 1038,8 hPa 0,0 l/m 0 min 0 min 0 W/m 3,2 km/h (1 Bft) 100,00 %
14.02.2021 05:18 -4,7 C -5,0 C -8,8 C 78 % 1038,8 hPa 0,0 l/m 0 min 0 min 0 W/m 3,2 km/h (1 Bft) 95,65 %
14.02.2021 05:20 -4,7 C -5,0 C -8,8 C 78 % 1038,8 hPa 0,0 l/m 0 min 0 min 0 W/m 3,2 km/h (1 Bft) 97,87 %
14.02.2021 05:22 -4,7 C -5,6 C -8,8 C 78 % 1038,8 hPa 0,0 l/m 0 min 0 min 0 W/m 3,2 km/h (1 Bft) 97,87 %
14.02.2021 05:24 -4,7 C -5,6 C -8,8 C 78 % 1038,7 hPa 0,0 l/m 0 min 0 min 0 W/m 0,0 km/h (0 Bft) 100,00 %
14.02.2021 05:26 -4,7 C -5,6 C -8,8 C 78 % 1038,8 hPa 0,0 l/m 0 min 0 min 0 W/m 0,0 km/h (0 Bft) 100,00 %
14.02.2021 05:28 -4,7 C -5,6 C -8,8 C 78 % 1038,7 hPa 0,0 l/m 0 min 0 min 0 W/m 3,2 km/h (1 Bft) 100,00 %
14.02.2021 05:30 -4,7 C -5,6 C -8,8 C 78 % 1038,7 hPa 0,0 l/m 0 min 0 min 0 W/m 0,0 km/h (0 Bft) 97,83 %
14.02.2021 05:32 -4,8 C -5,6 C -8,8 C 78 % 1038,7 hPa 0,0 l/m 0 min 0 min 0 W/m 0,0 km/h (0 Bft) 100,00 %
14.02.2021 05:34 -4,8 C -5,6 C -8,8 C 79 % 1038,7 hPa 0,0 l/m 0 min 0 min 0 W/m 3,2 km/h (1 Bft) 100,00 %
14.02.2021 05:36 -4,8 C -5,0 C -8,8 C 79 % 1038,8 hPa 0,0 l/m 0 min 0 min 0 W/m 9,7 km/h (2 Bft) 100,00 %
14.02.2021 05:38 -4,7 C -5,0 C -8,8 C 78 % 1038,7 hPa 0,0 l/m 0 min 0 min 0 W/m 0,0 km/h (0 Bft) 100,00 %
14.02.2021 05:40 -4,7 C -5,0 C -8,8 C 78 % 1038,7 hPa 0,0 l/m 0 min 0 min 0 W/m 0,0 km/h (0 Bft) 100,00 %
14.02.2021 05:42 -4,7 C -5,0 C -8,8 C 78 % 1038,7 hPa 0,0 l/m 0 min 0 min 0 W/m 0,0 km/h (0 Bft) 100,00 %
14.02.2021 05:44 -4,7 C -5,0 C -8,8 C 78 % 1038,8 hPa 0,0 l/m 0 min 0 min 0 W/m 3,2 km/h (1 Bft) 100,00 %
14.02.2021 05:46 -4,7 C -5,0 C -8,8 C 78 % 1038,7 hPa 0,0 l/m 0 min 0 min 0 W/m 6,4 km/h (2 Bft) 100,00 %
14.02.2021 05:48 -4,7 C -5,0 C -8,8 C 78 % 1038,7 hPa 0,0 l/m 0 min 0 min 0 W/m 3,2 km/h (1 Bft) 100,00 %
14.02.2021 05:50 -4,7 C -5,6 C -8,8 C 78 % 1038,8 hPa 0,0 l/m 0 min 0 min 0 W/m 3,2 km/h (1 Bft) 100,00 %
14.02.2021 05:52 -4,7 C -5,6 C -8,8 C 78 % 1038,7 hPa 0,0 l/m 0 min 0 min 0 W/m 3,2 km/h (1 Bft) 91,49 %
14.02.2021 05:54 -4,7 C -5,0 C -8,8 C 78 % 1038,7 hPa 0,0 l/m 0 min 0 min 0 W/m 0,0 km/h (0 Bft) 63,64 %
14.02.2021 05:56 -4,7 C -5,0 C -8,8 C 78 % 1038,6 hPa 0,0 l/m 0 min 0 min 0 W/m 0,0 km/h (0 Bft) 100,00 %
14.02.2021 05:58 -4,7 C -5,0 C -8,8 C 78 % 1038,6 hPa 0,0 l/m 0 min 0 min 0 W/m 3,2 km/h (1 Bft) 100,00 %
14.02.2021 06:00 -4,7 C -5,0 C -8,8 C 78 % 1038,6 hPa 0,0 l/m 0 min 0 min 0 W/m 6,4 km/h (2 Bft) 100,00 %
14.02.2021 06:02 -4,7 C -5,0 C -8,8 C 78 % 1038,6 hPa 0,0 l/m 0 min 0 min 0 W/m 6,4 km/h (2 Bft) 97,87 %
14.02.2021 06:04 -4,7 C -5,0 C -8,8 C 78 % 1038,6 hPa 0,0 l/m 0 min 0 min 0 W/m 0,0 km/h (0 Bft) 100,00 %
14.02.2021 06:08 -4,7 C -5,6 C -8,8 C 78 % 1038,5 hPa 0,0 l/m 0 min 0 min 0 W/m 6,4 km/h (2 Bft) 99,01 %
14.02.2021 06:10 -4,8 C -5,6 C -8,8 C 78 % 1038,6 hPa 0,0 l/m 0 min 0 min 0 W/m 3,2 km/h (1 Bft) 100,00 %
14.02.2021 06:12 -4,8 C -5,6 C -8,8 C 78 % 1038,6 hPa 0,0 l/m 0 min 0 min 0 W/m 0,0 km/h (0 Bft) 100,00 %
14.02.2021 06:14 -4,8 C -5,6 C -8,8 C 78 % 1038,5 hPa 0,0 l/m 0 min 0 min 0 W/m 6,4 km/h (2 Bft) 100,00 %
14.02.2021 06:16 -4,8 C -5,6 C -8,8 C 78 % 1038,6 hPa 0,0 l/m 0 min 0 min 0 W/m 0,0 km/h (0 Bft) 100,00 %
14.02.2021 06:18 -4,9 C -5,6 C -8,8 C 78 % 1038,5 hPa 0,0 l/m 0 min 0 min 0 W/m 0,0 km/h (0 Bft) 100,00 %
14.02.2021 06:20 -4,9 C -5,6 C -8,8 C 78 % 1038,5 hPa 0,0 l/m 0 min 0 min 0 W/m 0,0 km/h (0 Bft) 100,00 %
14.02.2021 06:22 -4,9 C -5,6 C -8,8 C 78 % 1038,5 hPa 0,0 l/m 0 min 0 min 0 W/m 0,0 km/h (0 Bft) 95,74 %
14.02.2021 06:24 -4,9 C -5,6 C -8,8 C 79 % 1038,4 hPa 0,0 l/m 0 min 0 min 0 W/m 0,0 km/h (0 Bft) 97,87 %
14.02.2021 06:26 -5,0 C -5,6 C -8,8 C 79 % 1038,5 hPa 0,0 l/m 0 min 0 min 0 W/m 0,0 km/h (0 Bft) 100,00 %
14.02.2021 06:28 -5,0 C -5,6 C -8,8 C 79 % 1038,5 hPa 0,0 l/m 0 min 0 min 0 W/m 0,0 km/h (0 Bft) 100,00 %
14.02.2021 06:30 -5,0 C -5,6 C -8,8 C 79 % 1038,5 hPa 0,0 l/m 0 min 0 min 0 W/m 0,0 km/h (0 Bft) 97,87 %
14.02.2021 06:32 -5,0 C -5,6 C -8,8 C 79 % 1038,4 hPa 0,0 l/m 0 min 0 min 0 W/m 0,0 km/h (0 Bft) 100,00 %
14.02.2021 06:34 -5,0 C -5,6 C -8,8 C 79 % 1038,4 hPa 0,0 l/m 0 min 0 min 0 W/m 0,0 km/h (0 Bft) 100,00 %
14.02.2021 06:36 -5,1 C -5,6 C -8,8 C 79 % 1038,3 hPa 0,0 l/m 0 min 0 min 0 W/m 0,0 km/h (0 Bft) 97,87 %
14.02.2021 06:38 -5,1 C -5,6 C -8,8 C 79 % 1038,3 hPa 0,0 l/m 0 min 0 min 0 W/m 0,0 km/h (0 Bft) 95,65 %
14.02.2021 06:40 -5,1 C -5,6 C -8,8 C 79 % 1038,3 hPa 0,0 l/m 0 min 0 min 0 W/m 3,2 km/h (1 Bft) 95,74 %
14.02.2021 06:42 -5,1 C -5,6 C -8,8 C 79 % 1038,3 hPa 0,0 l/m 0 min 0 min 0 W/m 3,2 km/h (1 Bft) 95,74 %
14.02.2021 06:44 -5,1 C -5,6 C -8,8 C 79 % 1038,3 hPa 0,0 l/m 0 min 0 min 0 W/m 3,2 km/h (1 Bft) 97,87 %
14.02.2021 06:46 -5,1 C -5,6 C -8,8 C 79 % 1038,3 hPa 0,0 l/m 0 min 0 min 0 W/m 0,0 km/h (0 Bft) 97,87 %
14.02.2021 06:48 -5,1 C -5,6 C -8,8 C 79 % 1038,3 hPa 0,0 l/m 0 min 0 min 0 W/m 0,0 km/h (0 Bft) 97,87 %
14.02.2021 06:50 -5,1 C -5,6 C -8,8 C 79 % 1038,3 hPa 0,0 l/m 0 min 0 min 0 W/m 0,0 km/h (0 Bft) 97,83 %
14.02.2021 06:52 -5,1 C -5,6 C -8,8 C 79 % 1038,3 hPa 0,0 l/m 0 min 0 min 0 W/m 0,0 km/h (0 Bft) 95,74 %
14.02.2021 06:54 -5,1 C -5,6 C -8,8 C 79 % 1038,3 hPa 0,0 l/m 0 min 0 min 0 W/m 0,0 km/h (0 Bft) 97,87 %
14.02.2021 06:56 -5,1 C -5,6 C -8,8 C 79 % 1038,3 hPa 0,0 l/m 0 min 0 min 0 W/m 0,0 km/h (0 Bft) 95,74 %
14.02.2021 06:58 -5,1 C -5,6 C -8,8 C 79 % 1038,2 hPa 0,0 l/m 0 min 0 min 0 W/m 3,2 km/h (1 Bft) 93,62 %
14.02.2021 07:00 -5,1 C -5,6 C -8,8 C 79 % 1038,3 hPa 0,0 l/m 0 min 0 min 0 W/m 0,0 km/h (0 Bft) 95,74 %
14.02.2021 07:02 -5,1 C -5,6 C -8,8 C 79 % 1038,3 hPa 0,0 l/m 0 min 0 min 0 W/m 0,0 km/h (0 Bft) 95,74 %
14.02.2021 07:04 -5,1 C -5,6 C -8,8 C 79 % 1038,3 hPa 0,0 l/m 0 min 0 min 0 W/m 0,0 km/h (0 Bft) 95,74 %
14.02.2021 07:06 -5,1 C -5,6 C -8,8 C 79 % 1038,3 hPa 0,0 l/m 0 min 0 min 0 W/m 0,0 km/h (0 Bft) 95,74 %
14.02.2021 07:08 -5,1 C -5,6 C -8,8 C 79 % 1038,2 hPa 0,0 l/m 0 min 0 min 0 W/m 0,0 km/h (0 Bft) 91,67 %
14.02.2021 07:10 -5,1 C -5,6 C -8,8 C 79 % 1038,3 hPa 0,0 l/m 0 min 0 min 0 W/m 6,4 km/h (2 Bft) 95,74 %
14.02.2021 07:12 -5,2 C -5,6 C -8,8 C 79 % 1038,3 hPa 0,0 l/m 0 min 0 min 0 W/m 0,0 km/h (0 Bft) 93,62 %
14.02.2021 07:14 -5,2 C -6,1 C -8,8 C 79 % 1038,4 hPa 0,0 l/m 0 min 0 min 0 W/m 0,0 km/h (0 Bft) 93,48 %
14.02.2021 07:16 -5,2 C -5,6 C -8,8 C 79 % 1038,4 hPa 0,0 l/m 0 min 0 min 0 W/m 0,0 km/h (0 Bft) 95,74 %
14.02.2021 07:18 -5,2 C -6,1 C -9,4 C 79 % 1038,4 hPa 0,0 l/m 0 min 0 min 0 W/m 0,0 km/h (0 Bft) 95,74 %
14.02.2021 07:20 -5,2 C -5,6 C -8,8 C 79 % 1038,5 hPa 0,0 l/m 0 min 0 min 0 W/m 0,0 km/h (0 Bft) 95,74 %
14.02.2021 07:22 -5,2 C -6,1 C -9,4 C 79 % 1038,4 hPa 0,0 l/m 0 min 0 min 0 W/m 0,0 km/h (0 Bft) 95,74 %
14.02.2021 07:24 -5,2 C -6,1 C -9,4 C 79 % 1038,5 hPa 0,0 l/m 0 min 0 min 0 W/m 0,0 km/h (0 Bft) 85,11 %
14.02.2021 07:26 -5,2 C -6,1 C -9,4 C 79 % 1038,5 hPa 0,0 l/m 0 min 0 min 0 W/m 0,0 km/h (0 Bft) 63,16 %
14.02.2021 07:28 -5,3 C -6,1 C -9,4 C 79 % 1038,6 hPa 0,0 l/m 0 min 0 min 0 W/m 0,0 km/h (0 Bft) 93,62 %
14.02.2021 07:30 -5,3 C -6,1 C -9,4 C 80 % 1038,5 hPa 0,0 l/m 0 min 0 min 0 W/m 0,0 km/h (0 Bft) 97,87 %
14.02.2021 07:32 -5,3 C -6,1 C -9,4 C 80 % 1038,5 hPa 0,0 l/m 0 min 0 min 0 W/m 3,2 km/h (1 Bft) 95,74 %
14.02.2021 07:34 -5,3 C -6,1 C -9,4 C 80 % 1038,5 hPa 0,0 l/m 0 min 0 min 0 W/m 0,0 km/h (0 Bft) 97,87 %
14.02.2021 07:36 -5,4 C -6,1 C -9,4 C 80 % 1038,6 hPa 0,0 l/m 0 min 0 min 0 W/m 6,4 km/h (2 Bft) 97,78 %
14.02.2021 07:38 -5,4 C -6,1 C -9,4 C 80 % 1038,6 hPa 0,0 l/m 0 min 0 min 0 W/m 6,4 km/h (2 Bft) 100,00 %
14.02.2021 07:40 -5,4 C -6,1 C -9,4 C 80 % 1038,6 hPa 0,0 l/m 0 min 0 min 0 W/m 3,2 km/h (1 Bft) 100,00 %
14.02.2021 07:42 -5,3 C -6,1 C -8,8 C 80 % 1038,6 hPa 0,0 l/m 0 min 0 min 0 W/m 0,0 km/h (0 Bft) 100,00 %
14.02.2021 07:44 -5,4 C -6,1 C -9,4 C 80 % 1038,6 hPa 0,0 l/m 0 min 0 min 0 W/m 0,0 km/h (0 Bft) 100,00 %
14.02.2021 07:46 -5,4 C -6,1 C -9,4 C 80 % 1038,5 hPa 0,0 l/m 0 min 0 min 0 W/m 6,4 km/h (2 Bft) 100,00 %
14.02.2021 07:48 -5,4 C -6,1 C -8,8 C 80 % 1038,6 hPa 0,0 l/m 0 min 0 min 0 W/m 6,4 km/h (2 Bft) 100,00 %
14.02.2021 07:50 -5,4 C -6,1 C -9,4 C 80 % 1038,5 hPa 0,0 l/m 0 min 0 min 0 W/m 3,2 km/h (1 Bft) 100,00 %
14.02.2021 07:52 -5,4 C -6,1 C -9,4 C 80 % 1038,6 hPa 0,0 l/m 0 min 0 min 3 W/m 0,0 km/h (0 Bft) 100,00 %
14.02.2021 07:54 -5,4 C -6,1 C -9,4 C 80 % 1038,6 hPa 0,0 l/m 0 min 0 min 5 W/m 0,0 km/h (0 Bft) 100,00 %
14.02.2021 07:56 -5,3 C -5,6 C -8,8 C 80 % 1038,6 hPa 0,0 l/m 0 min 0 min 5 W/m 0,0 km/h (0 Bft) 100,00 %
14.02.2021 07:58 -5,3 C -5,6 C -8,8 C 80 % 1038,6 hPa 0,0 l/m 0 min 0 min 6 W/m 0,0 km/h (0 Bft) 100,00 %
14.02.2021 08:00 -5,3 C -5,6 C -8,8 C 80 % 1038,6 hPa 0,0 l/m 0 min 0 min 7 W/m 0,0 km/h (0 Bft) 100,00 %
14.02.2021 08:02 -5,3 C -5,6 C -8,8 C 80 % 1038,6 hPa 0,0 l/m 0 min 0 min 8 W/m 0,0 km/h (0 Bft) 95,74 %
14.02.2021 08:04 -5,3 C -5,6 C -8,8 C 80 % 1038,6 hPa 0,0 l/m 0 min 0 min 9 W/m 0,0 km/h (0 Bft) 100,00 %
14.02.2021 08:06 -5,2 C -5,6 C -8,8 C 80 % 1038,6 hPa 0,0 l/m 0 min 0 min 9 W/m 0,0 km/h (0 Bft) 100,00 %
14.02.2021 08:08 -5,2 C -5,6 C -8,8 C 80 % 1038,6 hPa 0,0 l/m 0 min 0 min 11 W/m 0,0 km/h (0 Bft) 97,87 %
14.02.2021 08:10 -5,2 C -5,6 C -8,8 C 79 % 1038,6 hPa 0,0 l/m 0 min 0 min 11 W/m 6,4 km/h (2 Bft) 100,00 %
14.02.2021 08:12 -5,1 C -5,6 C -8,8 C 79 % 1038,6 hPa 0,0 l/m 0 min 0 min 12 W/m 3,2 km/h (1 Bft) 97,87 %
14.02.2021 08:14 -5,1 C -5,6 C -8,8 C 79 % 1038,6 hPa 0,0 l/m 0 min 0 min 12 W/m 0,0 km/h (0 Bft) 97,87 %
14.02.2021 08:16 -5,1 C -5,6 C -8,8 C 79 % 1038,7 hPa 0,0 l/m 0 min 0 min 13 W/m 0,0 km/h (0 Bft) 97,83 %
14.02.2021 08:18 -5,1 C -5,6 C -8,8 C 79 % 1038,7 hPa 0,0 l/m 0 min 0 min 14 W/m 0,0 km/h (0 Bft) 100,00 %
14.02.2021 08:20 -5,0 C -5,6 C -8,8 C 79 % 1038,7 hPa 0,0 l/m 0 min 0 min 16 W/m 0,0 km/h (0 Bft) 100,00 %
14.02.2021 08:22 -5,0 C -5,6 C -8,8 C 79 % 1038,7 hPa 0,0 l/m 0 min 0 min 17 W/m 0,0 km/h (0 Bft) 95,74 %
14.02.2021 08:24 -5,0 C -5,0 C -8,8 C 79 % 1038,7 hPa 0,0 l/m 0 min 0 min 18 W/m 0,0 km/h (0 Bft) 95,74 %
14.02.2021 08:26 -5,0 C -5,0 C -8,8 C 79 % 1038,7 hPa 0,0 l/m 0 min 0 min 19 W/m 3,2 km/h (1 Bft) 95,65 %
14.02.2021 08:28 -4,9 C -5,0 C -8,8 C 79 % 1038,7 hPa 0,0 l/m 0 min 0 min 20 W/m 0,0 km/h (0 Bft) 97,87 %
14.02.2021 08:30 -4,9 C -5,0 C -8,3 C 79 % 1038,8 hPa 0,0 l/m 0 min 0 min 21 W/m 0,0 km/h (0 Bft) 97,87 %
14.02.2021 08:32 -4,9 C -5,0 C -8,3 C 78 % 1038,8 hPa 0,0 l/m 0 min 0 min 23 W/m 3,2 km/h (1 Bft) 97,87 %
14.02.2021 08:34 -4,9 C -5,0 C -8,3 C 78 % 1038,7 hPa 0,0 l/m 0 min 0 min 23 W/m 0,0 km/h (0 Bft) 97,87 %
14.02.2021 08:36 -4,8 C -5,0 C -8,3 C 78 % 1038,7 hPa 0,0 l/m 0 min 0 min 25 W/m 3,2 km/h (1 Bft) 95,74 %
14.02.2021 08:38 -4,7 C -5,0 C -8,3 C 78 % 1038,8 hPa 0,0 l/m 0 min 0 min 25 W/m 3,2 km/h (1 Bft) 97,83 %
14.02.2021 08:40 -4,7 C -5,0 C -8,3 C 78 % 1038,8 hPa 0,0 l/m 0 min 0 min 25 W/m 0,0 km/h (0 Bft) 97,87 %
14.02.2021 08:42 -4,6 C -4,4 C -8,3 C 77 % 1038,8 hPa 0,0 l/m 0 min 0 min 26 W/m 0,0 km/h (0 Bft) 95,74 %
14.02.2021 08:44 -4,6 C -4,4 C -8,3 C 77 % 1038,8 hPa 0,0 l/m 0 min 0 min 26 W/m 3,2 km/h (1 Bft) 95,74 %
14.02.2021 08:46 -4,5 C -4,4 C -8,3 C 77 % 1038,9 hPa 0,0 l/m 0 min 0 min 28 W/m 0,0 km/h (0 Bft) 97,87 %
14.02.2021 08:48 -4,5 C -4,4 C -8,3 C 77 % 1038,9 hPa 0,0 l/m 0 min 0 min 28 W/m 0,0 km/h (0 Bft) 97,87 %
14.02.2021 08:50 -4,5 C -4,4 C -8,3 C 77 % 1038,9 hPa 0,0 l/m 0 min 0 min 30 W/m 6,4 km/h (2 Bft) 97,83 %
14.02.2021 08:52 -4,4 C -4,4 C -8,3 C 76 % 1038,9 hPa 0,0 l/m 0 min 0 min 30 W/m 3,2 km/h (1 Bft) 97,87 %
14.02.2021 08:54 -4,4 C -4,4 C -7,7 C 76 % 1038,9 hPa 0,0 l/m 0 min 0 min 30 W/m 0,0 km/h (0 Bft) 97,87 %
14.02.2021 08:56 -4,3 C -4,4 C -7,7 C 76 % 1038,9 hPa 0,0 l/m 0 min 0 min 30 W/m 0,0 km/h (0 Bft) 76,60 %
14.02.2021 08:58 -4,2 C -4,4 C -7,7 C 76 % 1038,9 hPa 0,0 l/m 0 min 0 min 30 W/m 0,0 km/h (0 Bft) 70,27 %
14.02.2021 09:00 -4,2 C -4,4 C -7,7 C 76 % 1038,9 hPa 0,0 l/m 0 min 0 min 30 W/m 6,4 km/h (2 Bft) 97,87 %
14.02.2021 09:02 -4,2 C -4,4 C -7,7 C 76 % 1038,9 hPa 0,0 l/m 0 min 0 min 30 W/m 3,2 km/h (1 Bft) 95,65 %
14.02.2021 09:04 -4,1 C -4,4 C -7,7 C 75 % 1038,9 hPa 0,0 l/m 0 min 0 min 28 W/m 0,0 km/h (0 Bft) 97,87 %
14.02.2021 09:06 -4,1 C -4,4 C -7,7 C 75 % 1038,9 hPa 0,0 l/m 0 min 0 min 28 W/m 3,2 km/h (1 Bft) 97,87 %
14.02.2021 09:08 -4,1 C -4,4 C -7,7 C 75 % 1039,0 hPa 0,0 l/m 0 min 0 min 28 W/m 0,0 km/h (0 Bft) 97,87 %
14.02.2021 09:10 -4,1 C -4,4 C -7,7 C 75 % 1038,9 hPa 0,0 l/m 0 min 0 min 26 W/m 9,7 km/h (2 Bft) 95,74 %
14.02.2021 09:12 -4,0 C -4,4 C -7,7 C 75 % 1038,9 hPa 0,0 l/m 0 min 0 min 26 W/m 6,4 km/h (2 Bft) 95,74 %
14.02.2021 09:14 -4,0 C -4,4 C -7,7 C 75 % 1039,0 hPa 0,0 l/m 0 min 0 min 25 W/m 6,4 km/h (2 Bft) 97,83 %
14.02.2021 09:16 -4,0 C -4,4 C -7,7 C 75 % 1039,0 hPa 0,0 l/m 0 min 0 min 25 W/m 3,2 km/h (1 Bft) 95,74 %
14.02.2021 09:18 -4,0 C -3,9 C -7,7 C 75 % 1039,0 hPa 0,0 l/m 0 min 0 min 25 W/m 0,0 km/h (0 Bft) 95,74 %
14.02.2021 09:20 -4,0 C -3,9 C -7,7 C 74 % 1039,0 hPa 0,0 l/m 0 min 0 min 25 W/m 0,0 km/h (0 Bft) 93,62 %
14.02.2021 09:22 -3,9 C -3,9 C -7,7 C 75 % 1039,0 hPa 0,0 l/m 0 min 0 min 26 W/m 0,0 km/h (0 Bft) 91,49 %
14.02.2021 09:24 -3,9 C -3,9 C -7,7 C 74 % 1039,0 hPa 0,0 l/m 0 min 0 min 26 W/m 3,2 km/h (1 Bft) 93,48 %
14.02.2021 09:26 -3,9 C -3,9 C -7,7 C 74 % 1039,1 hPa 0,0 l/m 0 min 0 min 27 W/m 0,0 km/h (0 Bft) 91,49 %
14.02.2021 09:28 -3,8 C -3,9 C -7,7 C 74 % 1039,0 hPa 0,0 l/m 0 min 0 min 28 W/m 3,2 km/h (1 Bft) 95,74 %
14.02.2021 09:30 -3,7 C -3,9 C -7,7 C 74 % 1039,0 hPa 0,0 l/m 0 min 0 min 28 W/m 3,2 km/h (1 Bft) 95,74 %
14.02.2021 09:32 -3,7 C -3,9 C -7,7 C 74 % 1038,9 hPa 0,0 l/m 0 min 0 min 28 W/m 6,4 km/h (2 Bft) 93,62 %
14.02.2021 09:34 -3,7 C -3,9 C -7,7 C 74 % 1039,0 hPa 0,0 l/m 0 min 0 min 28 W/m 3,2 km/h (1 Bft) 93,62 %
14.02.2021 09:36 -3,7 C -3,9 C -7,7 C 74 % 1038,9 hPa 0,0 l/m 0 min 0 min 28 W/m 6,4 km/h (2 Bft) 93,48 %
14.02.2021 09:38 -3,6 C -3,9 C -7,7 C 74 % 1038,9 hPa 0,0 l/m 0 min 0 min 28 W/m 3,2 km/h (1 Bft) 95,74 %
14.02.2021 09:40 -3,6 C -3,9 C -7,7 C 74 % 1038,9 hPa 0,0 l/m 0 min 0 min 28 W/m 0,0 km/h (0 Bft) 95,74 %
14.02.2021 09:42 -3,6 C -3,9 C -7,2 C 74 % 1038,9 hPa 0,0 l/m 0 min 0 min 28 W/m 3,2 km/h (1 Bft) 91,49 %
14.02.2021 09:44 -3,5 C -3,9 C -7,2 C 74 % 1038,9 hPa 0,0 l/m 0 min 0 min 29 W/m 3,2 km/h (1 Bft) 95,74 %
14.02.2021 09:46 -3,5 C -3,9 C -7,2 C 73 % 1038,8 hPa 0,0 l/m 0 min 0 min 30 W/m 3,2 km/h (1 Bft) 93,62 %
14.02.2021 09:48 -3,5 C -3,9 C -7,2 C 73 % 1038,7 hPa 0,0 l/m 0 min 0 min 30 W/m 0,0 km/h (0 Bft) 93,48 %
14.02.2021 09:50 -3,4 C -3,3 C -7,2 C 73 % 1038,8 hPa 0,0 l/m 0 min 0 min 30 W/m 0,0 km/h (0 Bft) 93,62 %
14.02.2021 09:52 -3,4 C -3,3 C -7,2 C 73 % 1038,7 hPa 0,0 l/m 0 min 0 min 31 W/m 3,2 km/h (1 Bft) 95,74 %
14.02.2021 09:54 -3,4 C -3,3 C -7,2 C 73 % 1038,7 hPa 0,0 l/m 0 min 0 min 32 W/m 3,2 km/h (1 Bft) 91,49 %
14.02.2021 09:56 -3,3 C -3,3 C -7,2 C 73 % 1038,7 hPa 0,0 l/m 0 min 0 min 32 W/m 0,0 km/h (0 Bft) 95,74 %
14.02.2021 09:58 -3,2 C -3,3 C -7,2 C 73 % 1038,6 hPa 0,0 l/m 0 min 0 min 33 W/m 0,0 km/h (0 Bft) 95,74 %
14.02.2021 10:00 -3,2 C -3,3 C -7,2 C 73 % 1038,6 hPa 0,0 l/m 0 min 0 min 33 W/m 9,7 km/h (2 Bft) 93,48 %
14.02.2021 10:02 -3,1 C -3,3 C -6,6 C 73 % 1038,6 hPa 0,0 l/m 0 min 0 min 34 W/m 0,0 km/h (0 Bft) 95,74 %
14.02.2021 10:04 -3,1 C -3,3 C -6,6 C 73 % 1038,6 hPa 0,0 l/m 0 min 0 min 35 W/m 0,0 km/h (0 Bft) 97,87 %
14.02.2021 10:06 -3,0 C -3,3 C -6,6 C 72 % 1038,5 hPa 0,0 l/m 0 min 0 min 35 W/m 0,0 km/h (0 Bft) 100,00 %
14.02.2021 10:08 -3,0 C -3,3 C -6,6 C 72 % 1038,6 hPa 0,0 l/m 0 min 0 min 37 W/m 0,0 km/h (0 Bft) 97,87 %
14.02.2021 10:10 -3,0 C -3,3 C -6,6 C 72 % 1038,6 hPa 0,0 l/m 0 min 0 min 38 W/m 0,0 km/h (0 Bft) 100,00 %
14.02.2021 10:12 -2,9 C -2,8 C -6,6 C 72 % 1038,6 hPa 0,0 l/m 0 min 0 min 40 W/m 6,4 km/h (2 Bft) 97,83 %
14.02.2021 10:14 -2,9 C -2,8 C -6,6 C 72 % 1038,7 hPa 0,0 l/m 0 min 0 min 42 W/m 0,0 km/h (0 Bft) 100,00 %
14.02.2021 10:16 -2,8 C -2,8 C -6,6 C 72 % 1038,6 hPa 0,0 l/m 0 min 0 min 44 W/m 0,0 km/h (0 Bft) 100,00 %
14.02.2021 10:18 -2,7 C -2,8 C -6,6 C 72 % 1038,6 hPa 0,0 l/m 0 min 0 min 46 W/m 3,2 km/h (1 Bft) 100,00 %
14.02.2021 10:20 -2,7 C -2,8 C -6,6 C 72 % 1038,6 hPa 0,0 l/m 0 min 0 min 48 W/m 3,2 km/h (1 Bft) 100,00 %
14.02.2021 10:22 -2,6 C -2,8 C -6,1 C 71 % 1038,7 hPa 0,0 l/m 0 min 0 min 49 W/m 0,0 km/h (0 Bft) 100,00 %
14.02.2021 10:24 -2,6 C -2,8 C -6,1 C 71 % 1038,6 hPa 0,0 l/m 0 min 0 min 51 W/m 0,0 km/h (0 Bft) 100,00 %
14.02.2021 10:26 -2,5 C -2,2 C -6,1 C 71 % 1038,7 hPa 0,0 l/m 0 min 0 min 51 W/m 6,4 km/h (2 Bft) 97,87 %
14.02.2021 10:28 -2,5 C -2,2 C -6,1 C 71 % 1038,7 hPa 0,0 l/m 0 min 0 min 50 W/m 3,2 km/h (1 Bft) 100,00 %
14.02.2021 10:30 -2,4 C -2,2 C -6,1 C 71 % 1038,6 hPa 0,0 l/m 0 min 0 min 50 W/m 3,2 km/h (1 Bft) 100,00 %
14.02.2021 10:32 -2,4 C -2,2 C -6,1 C 71 % 1038,7 hPa 0,0 l/m 0 min 0 min 51 W/m 3,2 km/h (1 Bft) 100,00 %
14.02.2021 10:34 -2,3 C -2,2 C -6,1 C 71 % 1038,6 hPa 0,0 l/m 0 min 0 min 50 W/m 3,2 km/h (1 Bft) 97,87 %
14.02.2021 10:36 -2,2 C -2,2 C -6,1 C 71 % 1038,6 hPa 0,0 l/m 0 min 0 min 49 W/m 3,2 km/h (1 Bft) 100,00 %
14.02.2021 10:38 -2,2 C -2,2 C -6,1 C 71 % 1038,6 hPa 0,0 l/m 0 min 0 min 49 W/m 3,2 km/h (1 Bft) 100,00 %
14.02.2021 10:40 -2,1 C -2,2 C -6,1 C 71 % 1038,7 hPa 0,0 l/m 0 min 0 min 48 W/m 0,0 km/h (0 Bft) 100,00 %
14.02.2021 10:42 -2,1 C -2,2 C -5,5 C 71 % 1038,6 hPa 0,0 l/m 0 min 0 min 50 W/m 0,0 km/h (0 Bft) 100,00 %
14.02.2021 10:44 -2,1 C -1,7 C -5,5 C 71 % 1038,6 hPa 0,0 l/m 0 min 0 min 53 W/m 0,0 km/h (0 Bft) 100,00 %
14.02.2021 10:46 -2,0 C -1,7 C -5,5 C 70 % 1038,6 hPa 0,0 l/m 0 min 0 min 55 W/m 6,4 km/h (2 Bft) 100,00 %
14.02.2021 10:48 -1,9 C -1,7 C -5,5 C 70 % 1038,7 hPa 0,0 l/m 0 min 0 min 59 W/m 3,2 km/h (1 Bft) 100,00 %
14.02.2021 10:50 -1,9 C -1,7 C -5,5 C 70 % 1038,6 hPa 0,0 l/m 0 min 0 min 62 W/m 6,4 km/h (2 Bft) 100,00 %
14.02.2021 10:52 -1,8 C -1,7 C -5,5 C 70 % 1038,6 hPa 0,0 l/m 0 min 0 min 64 W/m 0,0 km/h (0 Bft) 97,87 %
14.02.2021 10:54 -1,7 C -1,7 C -5,5 C 70 % 1038,6 hPa 0,0 l/m 0 min 0 min 67 W/m 3,2 km/h (1 Bft) 100,00 %
14.02.2021 10:56 -1,6 C -1,7 C -5,0 C 70 % 1038,6 hPa 0,0 l/m 0 min 0 min 69 W/m 3,2 km/h (1 Bft) 100,00 %
14.02.2021 10:58 -1,6 C -1,7 C -5,0 C 69 % 1038,5 hPa 0,0 l/m 0 min 0 min 70 W/m 3,2 km/h (1 Bft) 100,00 %
14.02.2021 11:00 -1,5 C -1,1 C -5,0 C 69 % 1038,5 hPa 0,0 l/m 0 min 0 min 70 W/m 3,2 km/h (1 Bft) 100,00 %
14.02.2021 11:02 -1,5 C -1,1 C -5,0 C 69 % 1038,6 hPa 0,0 l/m 0 min 0 min 70 W/m 3,2 km/h (1 Bft) 100,00 %
14.02.2021 11:04 -1,4 C -1,1 C -5,0 C 68 % 1038,6 hPa 0,0 l/m 0 min 0 min 69 W/m 3,2 km/h (1 Bft) 100,00 %
14.02.2021 11:06 -1,3 C -1,1 C -5,0 C 68 % 1038,5 hPa 0,0 l/m 0 min 0 min 66 W/m 3,2 km/h (1 Bft) 100,00 %
14.02.2021 11:08 -1,3 C -1,1 C -5,0 C 68 % 1038,4 hPa 0,0 l/m 0 min 0 min 63 W/m 6,4 km/h (2 Bft) 100,00 %
14.02.2021 11:10 -1,2 C -1,1 C -5,0 C 68 % 1038,5 hPa 0,0 l/m 0 min 0 min 63 W/m 3,2 km/h (1 Bft) 100,00 %
14.02.2021 11:12 -1,2 C -1,1 C -5,0 C 68 % 1038,4 hPa 0,0 l/m 0 min 0 min 62 W/m 6,4 km/h (2 Bft) 100,00 %
14.02.2021 11:14 -1,2 C -1,1 C -5,0 C 68 % 1038,4 hPa 0,0 l/m 0 min 0 min 60 W/m 0,0 km/h (0 Bft) 100,00 %
14.02.2021 11:16 -1,1 C -1,1 C -5,0 C 68 % 1038,4 hPa 0,0 l/m 0 min 0 min 58 W/m 0,0 km/h (0 Bft) 100,00 %
14.02.2021 11:18 -1,1 C -1,1 C -5,0 C 68 % 1038,4 hPa 0,0 l/m 0 min 0 min 59 W/m 0,0 km/h (0 Bft) 100,00 %
14.02.2021 11:20 -1,1 C -1,1 C -5,0 C 67 % 1038,4 hPa 0,0 l/m 0 min 0 min 61 W/m 0,0 km/h (0 Bft) 100,00 %
14.02.2021 11:22 -1,0 C -0,6 C -4,4 C 67 % 1038,4 hPa 0,0 l/m 0 min 0 min 71 W/m 0,0 km/h (0 Bft) 100,00 %
14.02.2021 11:24 -0,9 C -0,6 C -4,4 C 67 % 1038,3 hPa 0,0 l/m 0 min 0 min 104 W/m 3,2 km/h (1 Bft) 97,87 %
14.02.2021 11:26 -0,8 C -0,6 C -4,4 C 67 % 1038,3 hPa 0,0 l/m 2 min 0 min 380 W/m 6,4 km/h (2 Bft) 100,00 %
14.02.2021 11:28 -0,7 C -0,6 C -4,4 C 67 % 1038,4 hPa 0,0 l/m 2 min 0 min 231 W/m 12,9 km/h (3 Bft) 97,87 %
14.02.2021 11:30 -0,6 C 0,0 C -3,8 C 67 % 1038,4 hPa 0,0 l/m 0 min 0 min 85 W/m 3,2 km/h (1 Bft) 100,00 %
14.02.2021 11:32 -0,6 C 0,0 C -3,8 C 67 % 1038,3 hPa 0,0 l/m 0 min 0 min 91 W/m 3,2 km/h (1 Bft) 100,00 %
14.02.2021 11:34 -0,5 C 0,0 C -3,8 C 67 % 1038,4 hPa 0,0 l/m 0 min 0 min 96 W/m 3,2 km/h (1 Bft) 100,00 %
14.02.2021 11:36 -0,3 C 0,0 C -3,3 C 66 % 1038,3 hPa 0,0 l/m 0 min 0 min 102 W/m 3,2 km/h (1 Bft) 100,00 %
14.02.2021 11:38 -0,2 C 1,7 C -3,3 C 65 % 1038,2 hPa 0,0 l/m 0 min 0 min 136 W/m 3,2 km/h (1 Bft) 100,00 %
14.02.2021 11:40 -0,1 C 2,8 C -3,3 C 65 % 1038,3 hPa 0,0 l/m 2 min 0 min 210 W/m 0,0 km/h (0 Bft) 100,00 %
14.02.2021 11:42 0,0 C 3,9 C -3,3 C 65 % 1038,3 hPa 0,0 l/m 2 min 0 min 429 W/m 3,2 km/h (1 Bft) 97,87 %
14.02.2021 11:44 0,1 C 3,9 C -2,7 C 64 % 1038,2 hPa 0,0 l/m 2 min 0 min 419 W/m 3,2 km/h (1 Bft) 97,87 %
14.02.2021 11:46 0,1 C 3,9 C -2,7 C 64 % 1038,2 hPa 0,0 l/m 2 min 0 min 419 W/m 3,2 km/h (1 Bft) 100,00 %
14.02.2021 11:48 0,3 C 3,3 C -2,7 C 64 % 1038,2 hPa 0,0 l/m 2 min 0 min 410 W/m 16,1 km/h (3 Bft) 100,00 %
14.02.2021 11:50 0,3 C 3,9 C -2,7 C 64 % 1038,1 hPa 0,0 l/m 2 min 0 min 410 W/m 3,2 km/h (1 Bft) 97,87 %
14.02.2021 11:52 0,4 C 3,9 C -2,2 C 64 % 1038,2 hPa 0,0 l/m 2 min 0 min 397 W/m 3,2 km/h (1 Bft) 97,87 %
14.02.2021 11:54 0,5 C 4,4 C -2,2 C 63 % 1038,2 hPa 0,0 l/m 2 min 0 min 385 W/m 3,2 km/h (1 Bft) 93,62 %
14.02.2021 11:56 0,5 C 3,9 C -2,2 C 63 % 1038,1 hPa 0,0 l/m 2 min 0 min 386 W/m 12,9 km/h (3 Bft) 89,36 %
14.02.2021 11:58 0,5 C 4,4 C -2,2 C 63 % 1038,1 hPa 0,0 l/m 2 min 0 min 404 W/m 3,2 km/h (1 Bft) 95,65 %
14.02.2021 12:00 0,6 C 3,9 C -2,2 C 62 % 1038,0 hPa 0,0 l/m 2 min 0 min 404 W/m 3,2 km/h (1 Bft) 95,74 %
14.02.2021 12:02 0,7 C 4,4 C -1,6 C 62 % 1038,0 hPa 0,0 l/m 2 min 0 min 429 W/m 0,0 km/h (0 Bft) 93,62 %
14.02.2021 12:04 0,8 C 3,9 C -1,1 C 63 % 1038,0 hPa 0,0 l/m 2 min 0 min 429 W/m 3,2 km/h (1 Bft) 91,49 %
14.02.2021 12:08 0,9 C 4,4 C 0,6 C 61 % 1038,0 hPa 0,0 l/m 4 min 0 min 416 W/m 9,7 km/h (2 Bft) 94,68 %
14.02.2021 12:10 0,9 C 4,4 C 1,2 C 62 % 1038,0 hPa 0,0 l/m 2 min 0 min 416 W/m 3,2 km/h (1 Bft) 95,65 %
14.02.2021 12:12 1,0 C 4,4 C 1,7 C 61 % 1037,9 hPa 0,0 l/m 2 min 0 min 417 W/m 3,2 km/h (1 Bft) 91,49 %
14.02.2021 12:14 1,0 C 5,0 C 2,3 C 61 % 1037,9 hPa 0,0 l/m 2 min 0 min 431 W/m 3,2 km/h (1 Bft) 95,74 %
14.02.2021 12:16 1,1 C 5,0 C 2,8 C 62 % 1037,9 hPa 0,0 l/m 2 min 0 min 438 W/m 3,2 km/h (1 Bft) 95,74 %
14.02.2021 12:18 1,2 C 5,6 C 2,8 C 62 % 1037,9 hPa 0,0 l/m 2 min 0 min 439 W/m 3,2 km/h (1 Bft) 95,74 %
14.02.2021 12:20 1,3 C 5,6 C 3,4 C 61 % 1038,0 hPa 0,0 l/m 2 min 0 min 444 W/m 3,2 km/h (1 Bft) 95,74 %
14.02.2021 12:22 1,4 C 5,6 C 3,4 C 61 % 1037,9 hPa 0,0 l/m 2 min 0 min 447 W/m 0,0 km/h (0 Bft) 97,83 %
14.02.2021 12:24 1,4 C 6,1 C 3,9 C 61 % 1038,0 hPa 0,0 l/m 2 min 0 min 485 W/m 3,2 km/h (1 Bft) 100,00 %
14.02.2021 12:26 1,5 C 6,7 C 5,0 C 61 % 1038,0 hPa 0,0 l/m 2 min 0 min 505 W/m 3,2 km/h (1 Bft) 97,87 %
14.02.2021 12:28 1,6 C 6,1 C 4,5 C 61 % 1038,0 hPa 0,0 l/m 2 min 0 min 517 W/m 6,4 km/h (2 Bft) 97,87 %
14.02.2021 12:30 1,7 C 6,1 C 4,5 C 60 % 1037,9 hPa 0,0 l/m 2 min 0 min 520 W/m 0,0 km/h (0 Bft) 97,87 %
14.02.2021 12:32 1,8 C 6,7 C 5,0 C 60 % 1037,9 hPa 0,0 l/m 2 min 0 min 523 W/m 12,9 km/h (3 Bft) 100,00 %
14.02.2021 12:34 1,9 C 6,1 C 4,5 C 60 % 1037,8 hPa 0,0 l/m 2 min 0 min 516 W/m 6,4 km/h (2 Bft) 100,00 %
14.02.2021 12:36 1,9 C 6,1 C 5,0 C 60 % 1037,8 hPa 0,0 l/m 2 min 0 min 503 W/m 6,4 km/h (2 Bft) 100,00 %
14.02.2021 12:38 2,0 C 6,1 C 3,9 C 59 % 1037,8 hPa 0,0 l/m 2 min 0 min 488 W/m 12,9 km/h (3 Bft) 100,00 %
14.02.2021 12:40 2,0 C 6,1 C 4,5 C 59 % 1037,7 hPa 0,0 l/m 2 min 0 min 493 W/m 6,4 km/h (2 Bft) 100,00 %
14.02.2021 12:42 2,1 C 6,7 C 5,0 C 59 % 1037,8 hPa 0,0 l/m 2 min 0 min 498 W/m 3,2 km/h (1 Bft) 100,00 %
14.02.2021 12:44 2,2 C 6,7 C 5,0 C 59 % 1037,8 hPa 0,0 l/m 2 min 0 min 518 W/m 3,2 km/h (1 Bft) 100,00 %
14.02.2021 12:46 2,3 C 7,2 C 5,6 C 59 % 1037,8 hPa 0,0 l/m 2 min 0 min 524 W/m 0,0 km/h (0 Bft) 100,00 %
14.02.2021 12:48 2,4 C 7,2 C 6,2 C 59 % 1037,7 hPa 0,0 l/m 2 min 0 min 523 W/m 3,2 km/h (1 Bft) 100,00 %
14.02.2021 12:50 2,4 C 6,7 C 5,6 C 58 % 1037,7 hPa 0,0 l/m 2 min 0 min 512 W/m 6,4 km/h (2 Bft) 100,00 %
14.02.2021 12:52 2,5 C 7,2 C 5,6 C 58 % 1037,7 hPa 0,0 l/m 2 min 0 min 507 W/m 6,4 km/h (2 Bft) 100,00 %
14.02.2021 12:54 2,5 C 6,7 C 5,6 C 58 % 1037,7 hPa 0,0 l/m 2 min 0 min 516 W/m 3,2 km/h (1 Bft) 100,00 %
14.02.2021 12:56 2,6 C 6,7 C 5,6 C 58 % 1037,7 hPa 0,0 l/m 2 min 0 min 494 W/m 9,7 km/h (2 Bft) 97,83 %
14.02.2021 12:58 2,7 C 6,1 C 4,5 C 57 % 1037,7 hPa 0,0 l/m 2 min 0 min 442 W/m 3,2 km/h (1 Bft) 100,00 %
14.02.2021 13:00 2,7 C 5,0 C 3,4 C 57 % 1037,6 hPa 0,0 l/m 2 min 0 min 405 W/m 6,4 km/h (2 Bft) 100,00 %
14.02.2021 13:02 2,6 C 5,6 C 3,4 C 57 % 1037,6 hPa 0,0 l/m 2 min 0 min 418 W/m 3,2 km/h (1 Bft) 100,00 %
14.02.2021 13:04 2,7 C 5,6 C 3,9 C 57 % 1037,5 hPa 0,0 l/m 2 min 0 min 398 W/m 3,2 km/h (1 Bft) 100,00 %
14.02.2021 13:06 2,7 C 6,1 C 3,9 C 57 % 1037,6 hPa 0,0 l/m 2 min 0 min 391 W/m 3,2 km/h (1 Bft) 100,00 %
14.02.2021 13:08 2,7 C 5,6 C 3,4 C 57 % 1037,5 hPa 0,0 l/m 2 min 0 min 381 W/m 6,4 km/h (2 Bft) 97,87 %
14.02.2021 13:10 2,8 C 5,6 C 3,4 C 57 % 1037,5 hPa 0,0 l/m 2 min 0 min 370 W/m 3,2 km/h (1 Bft) 100,00 %
14.02.2021 13:12 2,8 C 5,0 C 2,8 C 57 % 1037,4 hPa 0,0 l/m 2 min 0 min 361 W/m 9,7 km/h (2 Bft) 100,00 %
14.02.2021 13:14 2,8 C 4,4 C 2,3 C 56 % 1037,4 hPa 0,0 l/m 2 min 0 min 328 W/m 6,4 km/h (2 Bft) 97,87 %
14.02.2021 13:16 2,7 C 4,4 C 2,3 C 56 % 1037,4 hPa 0,0 l/m 2 min 0 min 308 W/m 3,2 km/h (1 Bft) 100,00 %
14.02.2021 13:18 2,7 C 3,9 C 1,7 C 56 % 1037,3 hPa 0,0 l/m 2 min 0 min 302 W/m 3,2 km/h (1 Bft) 100,00 %
14.02.2021 13:20 2,7 C 4,4 C 1,7 C 56 % 1037,3 hPa 0,0 l/m 2 min 0 min 295 W/m 3,2 km/h (1 Bft) 100,00 %
14.02.2021 13:22 2,7 C 4,4 C 1,2 C 56 % 1037,3 hPa 0,0 l/m 2 min 0 min 285 W/m 3,2 km/h (1 Bft) 97,83 %
14.02.2021 13:24 2,7 C 4,4 C 1,2 C 55 % 1037,2 hPa 0,0 l/m 2 min 0 min 293 W/m 3,2 km/h (1 Bft) 97,87 %
14.02.2021 13:26 2,7 C 4,4 C 1,7 C 55 % 1037,2 hPa 0,2 l/m 2 min 0 min 308 W/m 3,2 km/h (1 Bft) 97,87 %
14.02.2021 13:28 2,8 C 4,4 C 1,7 C 55 % 1037,2 hPa 0,0 l/m 2 min 0 min 326 W/m 3,2 km/h (1 Bft) 100,00 %
14.02.2021 13:30 2,8 C 4,4 C 1,7 C 55 % 1037,1 hPa 0,0 l/m 2 min 0 min 346 W/m 3,2 km/h (1 Bft) 100,00 %
14.02.2021 13:32 2,8 C 5,0 C 2,3 C 55 % 1037,1 hPa 0,0 l/m 2 min 0 min 330 W/m 6,4 km/h (2 Bft) 100,00 %
14.02.2021 13:34 2,8 C 4,4 C 1,7 C 55 % 1037,1 hPa 0,0 l/m 2 min 0 min 298 W/m 3,2 km/h (1 Bft) 100,00 %
14.02.2021 13:36 2,9 C 4,4 C 1,7 C 55 % 1037,0 hPa 0,0 l/m 2 min 0 min 285 W/m 3,2 km/h (1 Bft) 97,87 %
14.02.2021 13:38 2,9 C 3,9 C 1,2 C 54 % 1037,0 hPa 0,0 l/m 2 min 0 min 273 W/m 0,0 km/h (0 Bft) 97,87 %
14.02.2021 13:40 2,9 C 3,9 C 0,6 C 54 % 1037,0 hPa 0,0 l/m 2 min 0 min 261 W/m 3,2 km/h (1 Bft) 53,49 %
14.02.2021 13:42 2,9 C 3,9 C 0,6 C 55 % 1037,0 hPa 0,0 l/m 2 min 0 min 250 W/m 3,2 km/h (1 Bft) 100,00 %
14.02.2021 13:44 2,9 C 3,9 C 0,6 C 54 % 1037,0 hPa 0,0 l/m 2 min 0 min 264 W/m 6,4 km/h (2 Bft) 97,83 %
14.02.2021 13:46 2,9 C 3,9 C 0,6 C 54 % 1037,0 hPa 0,0 l/m 2 min 0 min 264 W/m 6,4 km/h (2 Bft) 97,87 %
14.02.2021 13:48 2,9 C 3,9 C 0,6 C 55 % 1037,0 hPa 0,0 l/m 2 min 0 min 255 W/m 3,2 km/h (1 Bft) 93,62 %
14.02.2021 13:50 2,9 C 3,9 C 0,6 C 54 % 1036,9 hPa 0,0 l/m 2 min 0 min 257 W/m 3,2 km/h (1 Bft) 97,87 %
14.02.2021 13:52 2,9 C 4,4 C 1,2 C 54 % 1036,9 hPa 0,0 l/m 2 min 0 min 260 W/m 6,4 km/h (2 Bft) 95,74 %
14.02.2021 13:54 3,0 C 4,4 C 1,2 C 55 % 1037,0 hPa 0,0 l/m 2 min 0 min 257 W/m 3,2 km/h (1 Bft) 91,49 %
14.02.2021 13:56 3,0 C 4,4 C 1,7 C 54 % 1037,0 hPa 0,0 l/m 2 min 0 min 303 W/m 0,0 km/h (0 Bft) 93,48 %
14.02.2021 13:58 3,1 C 5,0 C 2,3 C 55 % 1036,9 hPa 0,0 l/m 2 min 0 min 341 W/m 6,4 km/h (2 Bft) 93,62 %
14.02.2021 14:00 3,1 C 5,6 C 2,8 C 55 % 1036,9 hPa 0,0 l/m 2 min 0 min 376 W/m 3,2 km/h (1 Bft) 91,49 %
14.02.2021 14:02 3,3 C 6,1 C 3,4 C 54 % 1037,0 hPa 0,0 l/m 2 min 0 min 387 W/m 3,2 km/h (1 Bft) 91,49 %
14.02.2021 14:04 3,3 C 6,1 C 3,4 C 53 % 1037,0 hPa 0,0 l/m 2 min 0 min 381 W/m 3,2 km/h (1 Bft) 93,62 %
14.02.2021 14:06 3,4 C 6,1 C 3,9 C 53 % 1037,0 hPa 0,0 l/m 2 min 0 min 398 W/m 3,2 km/h (1 Bft) 91,49 %
14.02.2021 14:08 3,5 C 7,8 C 5,6 C 53 % 1036,8 hPa 0,0 l/m 2 min 0 min 483 W/m 0,0 km/h (0 Bft) 91,30 %
14.02.2021 14:10 3,6 C 8,3 C 6,2 C 53 % 1036,8 hPa 0,0 l/m 2 min 0 min 540 W/m 6,4 km/h (2 Bft) 93,62 %
14.02.2021 14:12 3,9 C 8,3 C 6,7 C 52 % 1036,9 hPa 0,0 l/m 2 min 0 min 498 W/m 3,2 km/h (1 Bft) 93,62 %
14.02.2021 14:14 4,0 C 7,8 C 6,2 C 52 % 1036,9 hPa 0,2 l/m 2 min 0 min 457 W/m 12,9 km/h (3 Bft) 89,36 %
14.02.2021 14:16 4,0 C 7,8 C 6,7 C 52 % 1036,9 hPa 0,0 l/m 2 min 0 min 457 W/m 3,2 km/h (1 Bft) 93,62 %
14.02.2021 14:18 4,1 C 7,8 C 6,2 C 52 % 1036,9 hPa 0,0 l/m 2 min 0 min 423 W/m 3,2 km/h (1 Bft) 93,62 %
14.02.2021 14:20 4,2 C 7,8 C 6,7 C 52 % 1036,8 hPa 0,0 l/m 2 min 0 min 413 W/m 3,2 km/h (1 Bft) 93,48 %
14.02.2021 14:22 4,3 C 8,3 C 7,3 C 51 % 1036,8 hPa 0,0 l/m 2 min 0 min 465 W/m 3,2 km/h (1 Bft) 93,62 %
14.02.2021 14:24 4,3 C 8,3 C 7,3 C 52 % 1036,8 hPa 0,0 l/m 2 min 0 min 483 W/m 3,2 km/h (1 Bft) 95,74 %
14.02.2021 14:26 4,4 C 8,3 C 7,3 C 51 % 1036,7 hPa 0,0 l/m 2 min 0 min 450 W/m 3,2 km/h (1 Bft) 93,62 %
14.02.2021 14:28 4,4 C 7,8 C 6,7 C 50 % 1036,7 hPa 0,0 l/m 2 min 0 min 435 W/m 0,0 km/h (0 Bft) 95,74 %
14.02.2021 14:30 4,4 C 7,8 C 7,3 C 50 % 1036,6 hPa 0,0 l/m 2 min 0 min 442 W/m 3,2 km/h (1 Bft) 95,74 %
14.02.2021 14:32 4,4 C 7,8 C 6,7 C 50 % 1036,5 hPa 0,0 l/m 2 min 0 min 436 W/m 3,2 km/h (1 Bft) 95,65 %
14.02.2021 14:34 4,4 C 7,8 C 6,2 C 50 % 1036,5 hPa 0,0 l/m 2 min 0 min 437 W/m 3,2 km/h (1 Bft) 97,87 %
14.02.2021 14:36 4,4 C 7,2 C 5,6 C 50 % 1036,5 hPa 0,0 l/m 2 min 0 min 456 W/m 3,2 km/h (1 Bft) 95,74 %
14.02.2021 14:38 4,4 C 7,2 C 5,6 C 50 % 1036,4 hPa 0,0 l/m 2 min 0 min 414 W/m 3,2 km/h (1 Bft) 95,74 %
14.02.2021 14:40 4,3 C 6,7 C 5,0 C 50 % 1036,4 hPa 0,0 l/m 2 min 0 min 339 W/m 6,4 km/h (2 Bft) 95,74 %
14.02.2021 14:42 4,3 C 6,7 C 5,0 C 50 % 1036,4 hPa 0,0 l/m 2 min 0 min 398 W/m 3,2 km/h (1 Bft) 97,87 %
14.02.2021 14:44 4,3 C 5,6 C 3,9 C 50 % 1036,5 hPa 0,2 l/m 2 min 0 min 264 W/m 3,2 km/h (1 Bft) 97,83 %
14.02.2021 14:46 4,2 C 5,6 C 3,4 C 51 % 1036,4 hPa 0,0 l/m 2 min 0 min 248 W/m 3,2 km/h (1 Bft) 95,74 %
14.02.2021 14:48 4,1 C 5,0 C 2,8 C 50 % 1036,4 hPa 0,0 l/m 2 min 0 min 226 W/m 3,2 km/h (1 Bft) 97,87 %
14.02.2021 14:50 4,1 C 4,4 C 2,3 C 50 % 1036,5 hPa 0,0 l/m 2 min 0 min 217 W/m 0,0 km/h (0 Bft) 97,87 %
14.02.2021 14:52 4,0 C 4,4 C 1,7 C 50 % 1036,4 hPa 0,0 l/m 2 min 0 min 206 W/m 0,0 km/h (0 Bft) 97,87 %
14.02.2021 14:54 4,0 C 4,4 C 1,2 C 51 % 1036,3 hPa 0,0 l/m 2 min 0 min 196 W/m 0,0 km/h (0 Bft) 97,83 %
14.02.2021 14:56 4,0 C 4,4 C 1,2 C 51 % 1036,3 hPa 0,0 l/m 2 min 0 min 190 W/m 6,4 km/h (2 Bft) 95,74 %
14.02.2021 14:58 3,9 C 4,4 C 1,2 C 50 % 1036,3 hPa 0,0 l/m 2 min 0 min 186 W/m 6,4 km/h (2 Bft) 97,87 %
14.02.2021 15:00 3,9 C 4,4 C 1,2 C 50 % 1036,3 hPa 0,0 l/m 2 min 0 min 194 W/m 3,2 km/h (1 Bft) 97,87 %
14.02.2021 15:02 3,8 C 4,4 C 1,2 C 51 % 1036,2 hPa 0,0 l/m 2 min 0 min 206 W/m 0,0 km/h (0 Bft) 95,74 %
14.02.2021 15:04 3,8 C 4,4 C 1,7 C 51 % 1036,1 hPa 0,0 l/m 2 min 0 min 211 W/m 3,2 km/h (1 Bft) 97,87 %
14.02.2021 15:06 3,8 C 4,4 C 1,2 C 51 % 1036,1 hPa 0,0 l/m 2 min 0 min 195 W/m 0,0 km/h (0 Bft) 97,83 %
14.02.2021 15:08 3,8 C 4,4 C 1,2 C 51 % 1036,1 hPa 0,0 l/m 2 min 0 min 187 W/m 3,2 km/h (1 Bft) 97,87 %
14.02.2021 15:10 3,8 C 4,4 C 1,2 C 51 % 1036,1 hPa 0,0 l/m 2 min 0 min 201 W/m 3,2 km/h (1 Bft) 93,62 %
14.02.2021 15:12 3,7 C 4,4 C 1,2 C 50 % 1036,0 hPa 0,0 l/m 2 min 0 min 178 W/m 6,4 km/h (2 Bft) 97,87 %
14.02.2021 15:14 3,7 C 4,4 C 1,2 C 50 % 1036,0 hPa 0,0 l/m 2 min 0 min 163 W/m 3,2 km/h (1 Bft) 95,74 %
14.02.2021 15:16 3,7 C 4,4 C 1,2 C 51 % 1035,9 hPa 0,0 l/m 0 min 0 min 155 W/m 3,2 km/h (1 Bft) 97,87 %
14.02.2021 15:18 3,6 C 4,4 C 0,6 C 50 % 1035,9 hPa 0,0 l/m 2 min 0 min 163 W/m 6,4 km/h (2 Bft) 97,83 %
14.02.2021 15:20 3,6 C 4,4 C 1,2 C 51 % 1035,8 hPa 0,0 l/m 2 min 0 min 182 W/m 3,2 km/h (1 Bft) 97,87 %
14.02.2021 15:22 3,6 C 4,4 C 1,2 C 51 % 1035,8 hPa 0,0 l/m 2 min 0 min 197 W/m 3,2 km/h (1 Bft) 97,87 %
14.02.2021 15:24 3,6 C 5,0 C 1,7 C 51 % 1035,7 hPa 0,0 l/m 2 min 0 min 231 W/m 3,2 km/h (1 Bft) 97,87 %
14.02.2021 15:26 3,7 C 5,0 C 1,7 C 50 % 1035,6 hPa 0,0 l/m 2 min 0 min 249 W/m 3,2 km/h (1 Bft) 100,00 %
14.02.2021 15:28 3,7 C 5,6 C 2,3 C 50 % 1035,6 hPa 0,0 l/m 2 min 0 min 278 W/m 3,2 km/h (1 Bft) 100,00 %
14.02.2021 15:30 3,8 C 5,0 C 1,7 C 50 % 1035,5 hPa 0,0 l/m 2 min 0 min 231 W/m 3,2 km/h (1 Bft) 100,00 %
14.02.2021 15:32 3,8 C 5,0 C 1,2 C 50 % 1035,5 hPa 0,0 l/m 2 min 0 min 193 W/m 12,9 km/h (3 Bft) 100,00 %
14.02.2021 15:34 3,8 C 4,4 C 1,2 C 49 % 1035,5 hPa 0,2 l/m 2 min 0 min 175 W/m 3,2 km/h (1 Bft) 97,87 %
14.02.2021 15:36 3,8 C 4,4 C 1,2 C 50 % 1035,6 hPa 0,0 l/m 2 min 0 min 182 W/m 3,2 km/h (1 Bft) 100,00 %
14.02.2021 15:38 3,8 C 4,4 C 0,6 C 49 % 1035,5 hPa 0,0 l/m 2 min 0 min 183 W/m 6,4 km/h (2 Bft) 100,00 %
14.02.2021 15:40 3,8 C 4,4 C 1,2 C 50 % 1035,5 hPa 0,0 l/m 2 min 0 min 194 W/m 3,2 km/h (1 Bft) 97,87 %
14.02.2021 15:42 3,8 C 4,4 C 1,2 C 50 % 1035,4 hPa 0,0 l/m 2 min 0 min 175 W/m 6,4 km/h (2 Bft) 100,00 %
14.02.2021 15:44 3,8 C 3,9 C 0,6 C 50 % 1035,4 hPa 0,0 l/m 2 min 0 min 154 W/m 3,2 km/h (1 Bft) 100,00 %
14.02.2021 15:46 3,7 C 3,9 C 0,0 C 49 % 1035,3 hPa 0,0 l/m 2 min 0 min 138 W/m 3,2 km/h (1 Bft) 100,00 %
14.02.2021 15:48 3,7 C 3,9 C 0,0 C 49 % 1035,3 hPa 0,0 l/m 2 min 0 min 134 W/m 3,2 km/h (1 Bft) 97,87 %
14.02.2021 15:50 3,7 C 3,9 C 0,0 C 50 % 1035,3 hPa 0,0 l/m 2 min 0 min 130 W/m 6,4 km/h (2 Bft) 100,00 %
14.02.2021 15:52 3,6 C 3,9 C 0,0 C 50 % 1035,3 hPa 0,0 l/m 2 min 0 min 132 W/m 0,0 km/h (0 Bft) 97,87 %
14.02.2021 15:54 3,6 C 3,9 C 0,0 C 49 % 1035,3 hPa 0,0 l/m 2 min 0 min 135 W/m 3,2 km/h (1 Bft) 100,00 %
14.02.2021 15:56 3,6 C 3,9 C 0,0 C 50 % 1035,3 hPa 0,0 l/m 2 min 0 min 142 W/m 3,2 km/h (1 Bft) 95,74 %
14.02.2021 15:58 3,6 C 4,4 C 1,2 C 50 % 1035,3 hPa 0,0 l/m 2 min 0 min 204 W/m 6,4 km/h (2 Bft) 100,00 %
14.02.2021 16:00 3,8 C 5,6 C 2,8 C 50 % 1035,3 hPa 0,0 l/m 2 min 0 min 258 W/m 0,0 km/h (0 Bft) 100,00 %
14.02.2021 16:02 3,8 C 5,6 C 2,8 C 50 % 1035,2 hPa 0,0 l/m 2 min 0 min 253 W/m 0,0 km/h (0 Bft) 100,00 %
14.02.2021 16:04 3,9 C 5,6 C 3,4 C 50 % 1035,3 hPa 0,0 l/m 2 min 0 min 270 W/m 6,4 km/h (2 Bft) 100,00 %
14.02.2021 16:06 4,0 C 5,6 C 3,4 C 49 % 1035,2 hPa 0,0 l/m 2 min 0 min 251 W/m 3,2 km/h (1 Bft) 97,83 %
14.02.2021 16:08 4,0 C 5,6 C 2,8 C 49 % 1035,2 hPa 0,0 l/m 2 min 0 min 239 W/m 3,2 km/h (1 Bft) 97,87 %
14.02.2021 16:10 4,0 C 5,6 C 2,8 C 49 % 1035,2 hPa 0,0 l/m 2 min 0 min 218 W/m 3,2 km/h (1 Bft) 100,00 %
14.02.2021 16:12 4,1 C 5,6 C 2,8 C 48 % 1035,0 hPa 0,0 l/m 2 min 0 min 238 W/m 3,2 km/h (1 Bft) 100,00 %
14.02.2021 16:14 4,1 C 5,6 C 2,8 C 48 % 1035,0 hPa 0,0 l/m 2 min 0 min 224 W/m 3,2 km/h (1 Bft) 100,00 %
14.02.2021 16:16 4,1 C 5,0 C 1,7 C 49 % 1035,0 hPa 0,0 l/m 2 min 0 min 165 W/m 3,2 km/h (1 Bft) 100,00 %
14.02.2021 16:18 4,1 C 4,4 C 1,2 C 49 % 1035,0 hPa 0,0 l/m 2 min 0 min 116 W/m 3,2 km/h (1 Bft) 95,65 %
14.02.2021 16:20 4,1 C 3,9 C 0,6 C 49 % 1034,9 hPa 0,0 l/m 2 min 0 min 104 W/m 3,2 km/h (1 Bft) 95,74 %
14.02.2021 16:22 4,0 C 3,9 C 0,6 C 49 % 1034,9 hPa 0,0 l/m 2 min 0 min 100 W/m 0,0 km/h (0 Bft) 95,74 %
14.02.2021 16:24 4,0 C 3,9 C 0,0 C 49 % 1034,8 hPa 0,0 l/m 2 min 0 min 100 W/m 3,2 km/h (1 Bft) 93,62 %
14.02.2021 16:26 3,9 C 3,9 C 0,0 C 49 % 1034,8 hPa 0,0 l/m 2 min 0 min 114 W/m 3,2 km/h (1 Bft) 95,74 %
14.02.2021 16:28 3,9 C 4,4 C 0,0 C 49 % 1034,8 hPa 0,0 l/m 2 min 0 min 120 W/m 3,2 km/h (1 Bft) 95,74 %
14.02.2021 16:30 3,9 C 4,4 C 0,0 C 49 % 1034,8 hPa 0,0 l/m 2 min 0 min 132 W/m 3,2 km/h (1 Bft) 95,65 %
14.02.2021 16:32 3,8 C 4,4 C 0,0 C 49 % 1034,8 hPa 0,0 l/m 2 min 0 min 143 W/m 0,0 km/h (0 Bft) 93,62 %
14.02.2021 16:34 3,8 C 4,4 C -0,5 C 50 % 1034,8 hPa 0,0 l/m 2 min 0 min 129 W/m 0,0 km/h (0 Bft) 93,62 %
14.02.2021 16:36 3,8 C 4,4 C -0,5 C 50 % 1034,7 hPa 0,0 l/m 2 min 0 min 111 W/m 0,0 km/h (0 Bft) 95,74 %
14.02.2021 16:38 3,8 C 4,4 C -0,5 C 50 % 1034,7 hPa 0,0 l/m 2 min 0 min 121 W/m 3,2 km/h (1 Bft) 95,74 %
14.02.2021 16:40 3,8 C 4,4 C -0,5 C 49 % 1034,8 hPa 0,0 l/m 2 min 0 min 155 W/m 3,2 km/h (1 Bft) 93,62 %
14.02.2021 16:42 3,8 C 4,4 C -0,5 C 50 % 1034,7 hPa 0,0 l/m 2 min 0 min 147 W/m 3,2 km/h (1 Bft) 93,48 %
14.02.2021 16:44 3,8 C 4,4 C -0,5 C 49 % 1034,7 hPa 0,0 l/m 2 min 0 min 130 W/m 3,2 km/h (1 Bft) 95,74 %
14.02.2021 16:46 3,8 C 4,4 C -0,5 C 49 % 1034,7 hPa 0,0 l/m 2 min 0 min 116 W/m 6,4 km/h (2 Bft) 95,74 %
14.02.2021 16:48 3,7 C 4,4 C -0,5 C 49 % 1034,6 hPa 0,0 l/m 2 min 0 min 114 W/m 3,2 km/h (1 Bft) 95,74 %
14.02.2021 16:50 3,7 C 3,9 C -0,5 C 49 % 1034,6 hPa 0,0 l/m 2 min 0 min 108 W/m 0,0 km/h (0 Bft) 93,62 %
14.02.2021 16:52 3,6 C 3,9 C -0,5 C 50 % 1034,6 hPa 0,0 l/m 2 min 0 min 98 W/m 3,2 km/h (1 Bft) 95,74 %
14.02.2021 16:54 3,6 C 3,3 C -1,1 C 50 % 1034,6 hPa 0,0 l/m 2 min 0 min 83 W/m 3,2 km/h (1 Bft) 93,48 %
14.02.2021 16:56 3,5 C 3,3 C -1,1 C 50 % 1034,5 hPa 0,0 l/m 2 min 0 min 72 W/m 3,2 km/h (1 Bft) 95,74 %
14.02.2021 16:58 3,5 C 3,3 C -1,1 C 51 % 1034,5 hPa 0,0 l/m 2 min 0 min 60 W/m 3,2 km/h (1 Bft) 95,74 %
14.02.2021 17:00 3,4 C 3,3 C -1,1 C 51 % 1034,5 hPa 0,0 l/m 2 min 0 min 55 W/m 3,2 km/h (1 Bft) 95,74 %
14.02.2021 17:02 3,4 C 2,8 C -1,1 C 51 % 1034,5 hPa 0,0 l/m 2 min 0 min 52 W/m 3,2 km/h (1 Bft) 94,23 %
14.02.2021 17:04 3,3 C 2,8 C -1,1 C 51 % 1034,4 hPa 0,0 l/m 2 min 0 min 48 W/m 3,2 km/h (1 Bft) 97,87 %
14.02.2021 17:06 3,3 C 2,8 C -1,1 C 52 % 1034,4 hPa 0,0 l/m 2 min 0 min 46 W/m 3,2 km/h (1 Bft) 100,00 %
14.02.2021 17:08 3,2 C 2,8 C -1,1 C 51 % 1034,4 hPa 0,0 l/m 0 min 0 min 43 W/m 3,2 km/h (1 Bft) 100,00 %
14.02.2021 17:10 3,2 C 2,8 C -1,1 C 51 % 1034,3 hPa 0,0 l/m 2 min 0 min 41 W/m 3,2 km/h (1 Bft) 97,87 %
14.02.2021 17:12 3,2 C 2,8 C -1,1 C 51 % 1034,4 hPa 0,0 l/m 2 min 0 min 40 W/m 6,4 km/h (2 Bft) 97,87 %
14.02.2021 17:14 3,2 C 2,8 C -1,1 C 50 % 1034,3 hPa 0,0 l/m 2 min 0 min 38 W/m 3,2 km/h (1 Bft) 100,00 %
14.02.2021 17:16 3,1 C 2,8 C -1,1 C 51 % 1034,2 hPa 0,0 l/m 2 min 0 min 35 W/m 0,0 km/h (0 Bft) 100,00 %
14.02.2021 17:18 3,1 C 2,8 C -1,6 C 51 % 1034,2 hPa 0,0 l/m 2 min 0 min 32 W/m 6,4 km/h (2 Bft) 100,00 %
14.02.2021 17:20 3,1 C 2,8 C -1,6 C 52 % 1034,2 hPa 0,0 l/m 2 min 0 min 29 W/m 0,0 km/h (0 Bft) 95,74 %
14.02.2021 17:22 3,0 C 2,2 C -1,6 C 52 % 1034,2 hPa 0,0 l/m 2 min 0 min 26 W/m 0,0 km/h (0 Bft) 100,00 %
14.02.2021 17:24 3,0 C 2,8 C -1,6 C 52 % 1034,2 hPa 0,0 l/m 2 min 0 min 24 W/m 0,0 km/h (0 Bft) 100,00 %
14.02.2021 17:26 3,0 C 2,8 C -1,6 C 52 % 1034,2 hPa 0,0 l/m 2 min 0 min 21 W/m 0,0 km/h (0 Bft) 97,87 %
14.02.2021 17:28 3,0 C 2,2 C -1,6 C 53 % 1034,2 hPa 0,0 l/m 0 min 0 min 19 W/m 3,2 km/h (1 Bft) 100,00 %
14.02.2021 17:30 2,9 C 2,2 C -1,6 C 53 % 1034,2 hPa 0,0 l/m 0 min 0 min 16 W/m 3,2 km/h (1 Bft) 100,00 %
14.02.2021 17:32 2,9 C 2,2 C -2,2 C 54 % 1034,2 hPa 0,0 l/m 0 min 0 min 14 W/m 3,2 km/h (1 Bft) 100,00 %
14.02.2021 17:34 2,8 C 2,2 C -2,2 C 54 % 1034,2 hPa 0,0 l/m 0 min 0 min 12 W/m 0,0 km/h (0 Bft) 100,00 %
14.02.2021 17:36 2,8 C 2,2 C -2,2 C 54 % 1034,2 hPa 0,0 l/m 0 min 0 min 11 W/m 0,0 km/h (0 Bft) 100,00 %
14.02.2021 17:38 2,8 C 2,2 C -2,2 C 54 % 1034,2 hPa 0,0 l/m 0 min 0 min 9 W/m 0,0 km/h (0 Bft) 42,86 %
14.02.2021 17:40 2,6 C 2,2 C -2,2 C 54 % 1034,2 hPa 0,0 l/m 0 min 0 min 7 W/m 3,2 km/h (1 Bft) 100,00 %
14.02.2021 17:42 2,6 C 2,2 C -2,2 C 54 % 1034,3 hPa 0,0 l/m 0 min 0 min 5 W/m 6,4 km/h (2 Bft) 100,00 %
14.02.2021 17:44 2,6 C 2,2 C -2,2 C 54 % 1034,3 hPa 0,0 l/m 0 min 0 min 0 W/m 0,0 km/h (0 Bft) 97,87 %
14.02.2021 17:46 2,6 C 1,7 C -2,2 C 54 % 1034,3 hPa 0,0 l/m 0 min 0 min 0 W/m 3,2 km/h (1 Bft) 96,23 %
14.02.2021 17:48 2,5 C 1,7 C -2,2 C 54 % 1034,3 hPa 0,0 l/m 0 min 0 min 0 W/m 3,2 km/h (1 Bft) 97,56 %
14.02.2021 17:50 2,5 C 1,7 C -2,2 C 54 % 1034,2 hPa 0,0 l/m 0 min 0 min 0 W/m 3,2 km/h (1 Bft) 97,87 %
14.02.2021 17:52 2,5 C 1,7 C -2,2 C 54 % 1034,2 hPa 0,0 l/m 0 min 0 min 0 W/m 3,2 km/h (1 Bft) 97,83 %
14.02.2021 17:54 2,4 C 1,7 C -2,7 C 55 % 1034,1 hPa 0,0 l/m 0 min 0 min 0 W/m 0,0 km/h (0 Bft) 97,87 %
14.02.2021 17:56 2,4 C 1,7 C -2,7 C 55 % 1034,1 hPa 0,0 l/m 0 min 0 min 0 W/m 3,2 km/h (1 Bft) 95,74 %
14.02.2021 17:58 2,3 C 1,7 C -2,7 C 55 % 1034,1 hPa 0,0 l/m 0 min 0 min 0 W/m 0,0 km/h (0 Bft) 97,87 %
14.02.2021 18:00 2,3 C 1,7 C -2,7 C 55 % 1034,0 hPa 0,0 l/m 0 min 0 min 0 W/m 3,2 km/h (1 Bft) 97,87 %
14.02.2021 18:02 2,2 C 1,7 C -2,7 C 56 % 1034,0 hPa 0,0 l/m 0 min 0 min 0 W/m 3,2 km/h (1 Bft) 98,11 %
14.02.2021 18:04 2,2 C 1,7 C -2,7 C 55 % 1034,0 hPa 0,0 l/m 0 min 0 min 0 W/m 3,2 km/h (1 Bft) 97,87 %
14.02.2021 18:08 2,1 C 1,7 C -2,7 C 55 % 1034,0 hPa 0,0 l/m 0 min 0 min 0 W/m 3,2 km/h (1 Bft) 96,43 %
14.02.2021 18:10 2,1 C 1,1 C -2,7 C 55 % 1034,1 hPa 0,0 l/m 0 min 0 min 0 W/m 3,2 km/h (1 Bft) 97,87 %
14.02.2021 18:12 2,1 C 1,1 C -2,7 C 56 % 1034,1 hPa 0,0 l/m 0 min 0 min 0 W/m 3,2 km/h (1 Bft) 95,74 %
14.02.2021 18:14 2,1 C 1,7 C -2,7 C 55 % 1034,1 hPa 0,0 l/m 0 min 0 min 0 W/m 3,2 km/h (1 Bft) 97,87 %
14.02.2021 18:16 2,0 C 1,7 C -2,7 C 55 % 1034,0 hPa 0,0 l/m 0 min 0 min 0 W/m 3,2 km/h (1 Bft) 97,83 %
14.02.2021 18:18 2,0 C 1,7 C -2,7 C 55 % 1034,0 hPa 0,0 l/m 0 min 0 min 0 W/m 3,2 km/h (1 Bft) 97,87 %
14.02.2021 18:20 2,1 C 1,7 C -2,7 C 55 % 1034,0 hPa 0,0 l/m 0 min 0 min 0 W/m 3,2 km/h (1 Bft) 96,00 %
14.02.2021 18:22 2,0 C 1,7 C -2,7 C 55 % 1034,0 hPa 0,0 l/m 0 min 0 min 0 W/m 3,2 km/h (1 Bft) 97,87 %
14.02.2021 18:24 2,0 C 1,1 C -2,7 C 56 % 1034,0 hPa 0,0 l/m 0 min 0 min 0 W/m 3,2 km/h (1 Bft) 100,00 %
14.02.2021 18:26 2,0 C 1,1 C -2,7 C 56 % 1034,0 hPa 0,0 l/m 0 min 0 min 0 W/m 3,2 km/h (1 Bft) 95,74 %
14.02.2021 18:28 2,0 C 1,7 C -2,7 C 55 % 1034,0 hPa 0,0 l/m 0 min 0 min 0 W/m 3,2 km/h (1 Bft) 95,65 %
14.02.2021 18:30 2,0 C 1,1 C -2,7 C 56 % 1034,0 hPa 0,0 l/m 0 min 0 min 0 W/m 3,2 km/h (1 Bft) 100,00 %
14.02.2021 18:32 2,0 C 1,1 C -2,7 C 56 % 1033,9 hPa 0,0 l/m 0 min 0 min 0 W/m 6,4 km/h (2 Bft) 98,11 %
14.02.2021 18:34 1,9 C 1,1 C -2,7 C 56 % 1033,8 hPa 0,0 l/m 0 min 0 min 0 W/m 3,2 km/h (1 Bft) 97,87 %
14.02.2021 18:36 1,9 C 1,1 C -2,7 C 56 % 1033,8 hPa 0,0 l/m 0 min 0 min 0 W/m 3,2 km/h (1 Bft) 100,00 %
14.02.2021 18:38 1,9 C 1,1 C -2,7 C 56 % 1033,8 hPa 0,0 l/m 0 min 0 min 0 W/m 0,0 km/h (0 Bft) 100,00 %
14.02.2021 18:40 1,9 C 1,1 C -2,7 C 56 % 1033,7 hPa 0,0 l/m 0 min 0 min 0 W/m 0,0 km/h (0 Bft) 100,00 %
14.02.2021 18:42 1,9 C 1,1 C -2,7 C 57 % 1033,7 hPa 0,0 l/m 0 min 0 min 0 W/m 0,0 km/h (0 Bft) 100,00 %
14.02.2021 18:44 1,8 C 1,1 C -2,7 C 56 % 1033,7 hPa 0,0 l/m 0 min 0 min 0 W/m 3,2 km/h (1 Bft) 100,00 %
14.02.2021 18:46 1,8 C 1,1 C -3,3 C 57 % 1033,7 hPa 0,0 l/m 0 min 0 min 0 W/m 3,2 km/h (1 Bft) 100,00 %
14.02.2021 18:48 1,8 C 1,1 C -2,7 C 57 % 1033,8 hPa 0,0 l/m 0 min 0 min 0 W/m 3,2 km/h (1 Bft) 100,00 %
14.02.2021 18:50 1,8 C 1,1 C -3,3 C 57 % 1033,7 hPa 0,0 l/m 0 min 0 min 0 W/m 0,0 km/h (0 Bft) 100,00 %
14.02.2021 18:52 1,7 C 1,1 C -2,7 C 56 % 1033,7 hPa 0,0 l/m 0 min 0 min 0 W/m 0,0 km/h (0 Bft) 100,00 %
14.02.2021 18:54 1,7 C 1,1 C -3,3 C 56 % 1033,8 hPa 0,0 l/m 0 min 0 min 0 W/m 3,2 km/h (1 Bft) 100,00 %
14.02.2021 18:56 1,7 C 1,1 C -2,7 C 56 % 1033,8 hPa 0,0 l/m 0 min 0 min 0 W/m 0,0 km/h (0 Bft) 100,00 %
14.02.2021 18:58 1,7 C 1,1 C -3,3 C 57 % 1033,9 hPa 0,0 l/m 0 min 0 min 0 W/m 3,2 km/h (1 Bft) 100,00 %
14.02.2021 19:00 1,6 C 1,1 C -3,3 C 56 % 1033,9 hPa 0,0 l/m 0 min 0 min 0 W/m 3,2 km/h (1 Bft) 100,00 %
14.02.2021 19:02 1,6 C 1,1 C -3,3 C 57 % 1033,9 hPa 0,0 l/m 0 min 0 min 0 W/m 0,0 km/h (0 Bft) 100,00 %
14.02.2021 19:04 1,6 C 1,1 C -3,3 C 57 % 1033,9 hPa 0,0 l/m 0 min 0 min 0 W/m 3,2 km/h (1 Bft) 97,87 %
14.02.2021 19:06 1,6 C 1,1 C -3,3 C 57 % 1033,9 hPa 0,0 l/m 0 min 0 min 0 W/m 0,0 km/h (0 Bft) 97,87 %
14.02.2021 19:08 1,6 C 0,6 C -3,3 C 57 % 1033,9 hPa 0,0 l/m 0 min 0 min 0 W/m 3,2 km/h (1 Bft) 100,00 %
14.02.2021 19:10 1,5 C 1,1 C -3,3 C 57 % 1033,9 hPa 0,0 l/m 0 min 0 min 0 W/m 3,2 km/h (1 Bft) 100,00 %
14.02.2021 19:12 1,5 C 1,1 C -3,3 C 57 % 1033,8 hPa 0,0 l/m 0 min 0 min 0 W/m 3,2 km/h (1 Bft) 95,74 %
14.02.2021 19:14 1,5 C 1,1 C -3,3 C 57 % 1033,9 hPa 0,0 l/m 0 min 0 min 0 W/m 0,0 km/h (0 Bft) 100,00 %
14.02.2021 19:16 1,5 C 0,6 C -3,3 C 57 % 1033,8 hPa 0,0 l/m 0 min 0 min 0 W/m 0,0 km/h (0 Bft) 100,00 %
14.02.2021 19:18 1,5 C 1,1 C -3,3 C 57 % 1033,7 hPa 0,0 l/m 0 min 0 min 0 W/m 3,2 km/h (1 Bft) 95,74 %
14.02.2021 19:20 1,5 C 1,1 C -3,3 C 56 % 1033,8 hPa 0,0 l/m 0 min 0 min 0 W/m 0,0 km/h (0 Bft) 97,87 %
14.02.2021 19:22 1,5 C 1,1 C -3,3 C 56 % 1033,8 hPa 0,0 l/m 0 min 0 min 0 W/m 3,2 km/h (1 Bft) 97,87 %
14.02.2021 19:24 1,5 C 0,6 C -3,3 C 57 % 1033,8 hPa 0,0 l/m 0 min 0 min 0 W/m 3,2 km/h (1 Bft) 97,87 %
14.02.2021 19:26 1,4 C 0,6 C -3,3 C 57 % 1033,7 hPa 0,0 l/m 0 min 0 min 0 W/m 3,2 km/h (1 Bft) 93,62 %
14.02.2021 19:28 1,4 C 0,6 C -3,3 C 57 % 1033,7 hPa 0,0 l/m 0 min 0 min 0 W/m 3,2 km/h (1 Bft) 97,83 %
14.02.2021 19:30 1,4 C 0,6 C -3,3 C 57 % 1033,7 hPa 0,0 l/m 0 min 0 min 0 W/m 3,2 km/h (1 Bft) 97,87 %
14.02.2021 19:32 1,4 C 0,6 C -3,3 C 57 % 1033,7 hPa 0,0 l/m 0 min 0 min 0 W/m 3,2 km/h (1 Bft) 97,92 %
14.02.2021 19:34 1,4 C 0,6 C -3,3 C 57 % 1033,7 hPa 0,0 l/m 0 min 0 min 0 W/m 3,2 km/h (1 Bft) 97,87 %
14.02.2021 19:36 1,4 C 0,6 C -3,3 C 57 % 1033,7 hPa 0,0 l/m 0 min 0 min 0 W/m 6,4 km/h (2 Bft) 93,62 %
14.02.2021 19:38 1,4 C 0,6 C -3,3 C 57 % 1033,8 hPa 0,0 l/m 0 min 0 min 0 W/m 0,0 km/h (0 Bft) 97,83 %
14.02.2021 19:40 1,4 C 0,6 C -3,3 C 57 % 1033,7 hPa 0,0 l/m 0 min 0 min 0 W/m 6,4 km/h (2 Bft) 97,87 %
14.02.2021 19:42 1,3 C 0,6 C -3,3 C 57 % 1033,7 hPa 0,0 l/m 0 min 0 min 0 W/m 0,0 km/h (0 Bft) 97,87 %
14.02.2021 19:44 1,3 C 0,6 C -3,3 C 57 % 1033,8 hPa 0,0 l/m 0 min 0 min 0 W/m 0,0 km/h (0 Bft) 95,74 %
14.02.2021 19:46 1,3 C 0,6 C -3,3 C 57 % 1033,7 hPa 0,0 l/m 0 min 0 min 0 W/m 3,2 km/h (1 Bft) 97,87 %
14.02.2021 19:48 1,3 C 0,6 C -3,3 C 58 % 1033,7 hPa 0,0 l/m 0 min 0 min 0 W/m 0,0 km/h (0 Bft) 97,87 %
14.02.2021 19:50 1,3 C 0,6 C -3,3 C 58 % 1033,7 hPa 0,0 l/m 0 min 0 min 0 W/m 3,2 km/h (1 Bft) 97,83 %
14.02.2021 19:52 1,3 C 0,6 C -3,3 C 57 % 1033,6 hPa 0,0 l/m 0 min 0 min 0 W/m 3,2 km/h (1 Bft) 95,74 %
14.02.2021 19:54 1,3 C 0,6 C -3,3 C 58 % 1033,5 hPa 0,0 l/m 0 min 0 min 0 W/m 3,2 km/h (1 Bft) 97,87 %
14.02.2021 19:56 1,2 C 0,6 C -3,3 C 58 % 1033,5 hPa 0,0 l/m 0 min 0 min 0 W/m 0,0 km/h (0 Bft) 97,87 %
14.02.2021 19:58 1,3 C 0,6 C -3,3 C 57 % 1033,4 hPa 0,0 l/m 0 min 0 min 0 W/m 6,4 km/h (2 Bft) 95,74 %
14.02.2021 20:00 1,3 C 0,6 C -3,3 C 58 % 1033,4 hPa 0,0 l/m 0 min 0 min 0 W/m 3,2 km/h (1 Bft) 95,74 %
14.02.2021 20:02 1,3 C 0,6 C -3,3 C 58 % 1033,3 hPa 0,0 l/m 0 min 0 min 0 W/m 3,2 km/h (1 Bft) 97,87 %
14.02.2021 20:04 1,3 C 0,6 C -3,3 C 58 % 1033,3 hPa 0,0 l/m 0 min 0 min 0 W/m 3,2 km/h (1 Bft) 95,74 %
14.02.2021 20:06 1,2 C 0,6 C -3,3 C 58 % 1033,3 hPa 0,0 l/m 0 min 0 min 0 W/m 0,0 km/h (0 Bft) 33,33 %
14.02.2021 20:08 1,2 C 0,6 C -3,3 C 58 % 1033,3 hPa 0,0 l/m 0 min 0 min 0 W/m 3,2 km/h (1 Bft) 95,74 %
14.02.2021 20:10 1,2 C 0,6 C -3,3 C 58 % 1033,3 hPa 0,0 l/m 0 min 0 min 0 W/m 3,2 km/h (1 Bft) 93,62 %
14.02.2021 20:12 1,2 C 0,6 C -3,3 C 58 % 1033,3 hPa 0,0 l/m 0 min 0 min 0 W/m 3,2 km/h (1 Bft) 93,62 %
14.02.2021 20:14 1,2 C 0,6 C -3,3 C 58 % 1033,2 hPa 0,0 l/m 0 min 0 min 0 W/m 3,2 km/h (1 Bft) 95,65 %
14.02.2021 20:16 1,2 C 0,6 C -3,3 C 58 % 1033,3 hPa 0,0 l/m 0 min 0 min 0 W/m 3,2 km/h (1 Bft) 95,74 %
14.02.2021 20:18 1,2 C 0,6 C -3,3 C 58 % 1033,3 hPa 0,0 l/m 0 min 0 min 0 W/m 0,0 km/h (0 Bft) 95,74 %
14.02.2021 20:20 1,2 C 0,6 C -3,3 C 59 % 1033,4 hPa 0,0 l/m 0 min 0 min 0 W/m 3,2 km/h (1 Bft) 95,74 %
14.02.2021 20:22 1,1 C 0,6 C -3,3 C 59 % 1033,4 hPa 0,0 l/m 0 min 0 min 0 W/m 0,0 km/h (0 Bft) 93,62 %
14.02.2021 20:24 1,1 C 0,6 C -3,3 C 59 % 1033,4 hPa 0,0 l/m 0 min 0 min 0 W/m 3,2 km/h (1 Bft) 93,62 %
14.02.2021 20:26 1,1 C 0,6 C -3,3 C 59 % 1033,3 hPa 0,0 l/m 0 min 0 min 0 W/m 3,2 km/h (1 Bft) 97,83 %
14.02.2021 20:28 1,1 C 0,6 C -3,3 C 59 % 1033,2 hPa 0,0 l/m 0 min 0 min 0 W/m 3,2 km/h (1 Bft) 95,74 %
14.02.2021 20:30 1,1 C 0,6 C -3,3 C 59 % 1033,2 hPa 0,0 l/m 0 min 0 min 0 W/m 0,0 km/h (0 Bft) 95,74 %
14.02.2021 20:32 1,1 C 0,6 C -3,3 C 59 % 1033,3 hPa 0,0 l/m 0 min 0 min 0 W/m 0,0 km/h (0 Bft) 95,74 %
14.02.2021 20:34 1,1 C 0,6 C -3,8 C 59 % 1033,3 hPa 0,0 l/m 0 min 0 min 0 W/m 6,4 km/h (2 Bft) 95,74 %
14.02.2021 20:36 1,0 C 0,6 C -3,8 C 60 % 1033,2 hPa 0,0 l/m 0 min 0 min 0 W/m 3,2 km/h (1 Bft) 95,74 %
14.02.2021 20:38 1,0 C 0,6 C -3,3 C 59 % 1033,2 hPa 0,0 l/m 0 min 0 min 0 W/m 0,0 km/h (0 Bft) 95,65 %
14.02.2021 20:40 1,0 C 0,6 C -3,8 C 60 % 1033,2 hPa 0,0 l/m 0 min 0 min 0 W/m 9,7 km/h (2 Bft) 95,74 %
14.02.2021 20:42 1,0 C 0,6 C -3,8 C 59 % 1033,1 hPa 0,0 l/m 0 min 0 min 0 W/m 0,0 km/h (0 Bft) 95,74 %
14.02.2021 20:44 1,0 C 0,6 C -3,8 C 60 % 1033,1 hPa 0,0 l/m 0 min 0 min 0 W/m 3,2 km/h (1 Bft) 91,49 %
14.02.2021 20:46 1,0 C 0,6 C -3,8 C 60 % 1033,1 hPa 0,0 l/m 0 min 0 min 0 W/m 3,2 km/h (1 Bft) 97,87 %
14.02.2021 20:48 0,9 C 0,0 C -3,8 C 60 % 1033,1 hPa 0,0 l/m 0 min 0 min 0 W/m 0,0 km/h (0 Bft) 95,74 %
14.02.2021 20:50 0,9 C 0,0 C -3,8 C 60 % 1033,0 hPa 0,0 l/m 0 min 0 min 0 W/m 0,0 km/h (0 Bft) 97,83 %
14.02.2021 20:52 0,9 C 0,0 C -3,8 C 61 % 1033,0 hPa 0,0 l/m 0 min 0 min 0 W/m 3,2 km/h (1 Bft) 97,87 %
14.02.2021 20:54 0,9 C 0,0 C -3,8 C 60 % 1032,9 hPa 0,0 l/m 0 min 0 min 0 W/m 29,0 km/h (5 Bft) 95,74 %
14.02.2021 20:56 0,9 C 0,0 C -3,8 C 60 % 1032,9 hPa 0,0 l/m 0 min 0 min 0 W/m 3,2 km/h (1 Bft) 97,87 %
14.02.2021 20:58 0,8 C 0,0 C -3,8 C 60 % 1032,8 hPa 0,0 l/m 0 min 0 min 0 W/m 6,4 km/h (2 Bft) 95,74 %
14.02.2021 21:00 0,8 C 0,0 C -3,8 C 60 % 1032,8 hPa 0,0 l/m 0 min 0 min 0 W/m 3,2 km/h (1 Bft) 97,87 %
14.02.2021 21:02 0,8 C 0,6 C -3,8 C 60 % 1032,8 hPa 0,0 l/m 0 min 0 min 0 W/m 3,2 km/h (1 Bft) 95,65 %
14.02.2021 21:04 0,8 C 0,6 C -3,8 C 60 % 1032,7 hPa 0,0 l/m 0 min 0 min 0 W/m 0,0 km/h (0 Bft) 95,74 %
14.02.2021 21:06 0,9 C 0,6 C -3,8 C 60 % 1032,8 hPa 0,0 l/m 0 min 0 min 0 W/m 3,2 km/h (1 Bft) 95,74 %
14.02.2021 21:08 0,9 C 0,6 C -3,8 C 60 % 1032,8 hPa 0,0 l/m 0 min 0 min 0 W/m 0,0 km/h (0 Bft) 97,87 %
14.02.2021 21:10 0,9 C 0,6 C -3,8 C 60 % 1032,7 hPa 0,0 l/m 0 min 0 min 0 W/m 3,2 km/h (1 Bft) 95,74 %
14.02.2021 21:12 0,9 C 0,6 C -3,8 C 60 % 1032,7 hPa 0,0 l/m 0 min 0 min 0 W/m 0,0 km/h (0 Bft) 97,83 %
14.02.2021 21:14 0,9 C 0,6 C -3,8 C 60 % 1032,7 hPa 0,0 l/m 0 min 0 min 0 W/m 3,2 km/h (1 Bft) 97,87 %
14.02.2021 21:16 0,9 C 0,6 C -3,8 C 60 % 1032,7 hPa 0,0 l/m 0 min 0 min 0 W/m 3,2 km/h (1 Bft) 97,87 %
14.02.2021 21:18 0,9 C 0,6 C -3,8 C 60 % 1032,7 hPa 0,0 l/m 0 min 0 min 0 W/m 3,2 km/h (1 Bft) 97,87 %
14.02.2021 21:20 0,9 C 0,6 C -3,8 C 60 % 1032,6 hPa 0,0 l/m 0 min 0 min 0 W/m 6,4 km/h (2 Bft) 97,87 %
14.02.2021 21:22 0,9 C 0,6 C -3,8 C 60 % 1032,6 hPa 0,0 l/m 0 min 0 min 0 W/m 6,4 km/h (2 Bft) 98,18 %
14.02.2021 21:24 0,9 C 0,6 C -3,8 C 60 % 1032,6 hPa 0,0 l/m 0 min 0 min 0 W/m 3,2 km/h (1 Bft) 95,74 %
14.02.2021 21:26 1,0 C 0,6 C -3,3 C 59 % 1032,6 hPa 0,0 l/m 0 min 0 min 0 W/m 3,2 km/h (1 Bft) 100,00 %
14.02.2021 21:28 1,0 C 0,6 C -3,8 C 60 % 1032,7 hPa 0,0 l/m 0 min 0 min 0 W/m 3,2 km/h (1 Bft) 100,00 %
14.02.2021 21:30 0,9 C 0,6 C -3,8 C 60 % 1032,5 hPa 0,0 l/m 0 min 0 min 0 W/m 3,2 km/h (1 Bft) 100,00 %
14.02.2021 21:32 0,9 C 0,0 C -3,8 C 60 % 1032,5 hPa 0,0 l/m 0 min 0 min 0 W/m 3,2 km/h (1 Bft) 97,87 %
14.02.2021 21:34 0,9 C 0,6 C -3,8 C 60 % 1032,4 hPa 0,0 l/m 0 min 0 min 0 W/m 3,2 km/h (1 Bft) 100,00 %
14.02.2021 21:36 0,9 C 0,6 C -3,8 C 59 % 1032,5 hPa 0,0 l/m 0 min 0 min 0 W/m 6,4 km/h (2 Bft) 100,00 %
14.02.2021 21:38 0,9 C 0,6 C -3,8 C 59 % 1032,4 hPa 0,0 l/m 0 min 0 min 0 W/m 0,0 km/h (0 Bft) 100,00 %
14.02.2021 21:40 0,9 C 0,6 C -3,8 C 60 % 1032,3 hPa 0,0 l/m 0 min 0 min 0 W/m 3,2 km/h (1 Bft) 100,00 %
14.02.2021 21:42 0,9 C 0,6 C -3,8 C 59 % 1032,3 hPa 0,0 l/m 0 min 0 min 0 W/m 6,4 km/h (2 Bft) 97,87 %
14.02.2021 21:44 0,9 C 0,6 C -3,8 C 59 % 1032,3 hPa 0,0 l/m 0 min 0 min 0 W/m 3,2 km/h (1 Bft) 95,74 %
14.02.2021 21:46 0,9 C 0,6 C -3,8 C 60 % 1032,3 hPa 0,0 l/m 0 min 0 min 0 W/m 3,2 km/h (1 Bft) 100,00 %
14.02.2021 21:48 0,9 C 0,6 C -3,3 C 59 % 1032,3 hPa 0,0 l/m 0 min 0 min 0 W/m 0,0 km/h (0 Bft) 100,00 %
14.02.2021 21:50 0,9 C 0,6 C -3,3 C 59 % 1032,3 hPa 0,0 l/m 0 min 0 min 0 W/m 3,2 km/h (1 Bft) 100,00 %
14.02.2021 21:52 0,9 C 0,6 C -3,3 C 59 % 1032,2 hPa 0,0 l/m 0 min 0 min 0 W/m 12,9 km/h (3 Bft) 97,87 %
14.02.2021 21:54 0,9 C 0,6 C -3,3 C 59 % 1032,3 hPa 0,0 l/m 0 min 0 min 0 W/m 6,4 km/h (2 Bft) 100,00 %
14.02.2021 21:56 0,9 C 0,6 C -3,8 C 59 % 1032,2 hPa 0,0 l/m 0 min 0 min 0 W/m 3,2 km/h (1 Bft) 100,00 %
14.02.2021 21:58 0,9 C 0,6 C -3,8 C 59 % 1032,2 hPa 0,0 l/m 0 min 0 min 0 W/m 3,2 km/h (1 Bft) 100,00 %
14.02.2021 22:00 1,0 C 0,6 C -3,8 C 59 % 1032,2 hPa 0,0 l/m 0 min 0 min 0 W/m 3,2 km/h (1 Bft) 100,00 %
14.02.2021 22:02 0,9 C 0,6 C -3,8 C 59 % 1032,1 hPa 0,0 l/m 0 min 0 min 0 W/m 6,4 km/h (2 Bft) 100,00 %
14.02.2021 22:04 0,9 C 0,6 C -3,8 C 59 % 1032,2 hPa 0,0 l/m 0 min 0 min 0 W/m 6,4 km/h (2 Bft) 100,00 %
14.02.2021 22:06 0,9 C 0,6 C -3,8 C 59 % 1032,0 hPa 0,0 l/m 0 min 0 min 0 W/m 3,2 km/h (1 Bft) 100,00 %
14.02.2021 22:08 0,9 C 0,6 C -3,8 C 59 % 1032,1 hPa 0,0 l/m 0 min 0 min 0 W/m 6,4 km/h (2 Bft) 100,00 %
14.02.2021 22:10 0,9 C 0,6 C -3,8 C 59 % 1032,1 hPa 0,0 l/m 0 min 0 min 0 W/m 0,0 km/h (0 Bft) 100,00 %
14.02.2021 22:12 0,9 C 0,0 C -3,8 C 59 % 1032,1 hPa 0,0 l/m 0 min 0 min 0 W/m 3,2 km/h (1 Bft) 100,00 %
14.02.2021 22:14 0,9 C 0,6 C -3,8 C 59 % 1032,0 hPa 0,0 l/m 0 min 0 min 0 W/m 3,2 km/h (1 Bft) 95,74 %
14.02.2021 22:16 0,9 C 0,6 C -3,8 C 59 % 1032,1 hPa 0,0 l/m 0 min 0 min 0 W/m 3,2 km/h (1 Bft) 97,73 %
14.02.2021 22:18 0,9 C 0,6 C -3,8 C 59 % 1032,1 hPa 0,0 l/m 0 min 0 min 0 W/m 3,2 km/h (1 Bft) 97,87 %
14.02.2021 22:20 0,9 C 0,6 C -3,8 C 59 % 1031,9 hPa 0,0 l/m 0 min 0 min 0 W/m 3,2 km/h (1 Bft) 95,83 %
14.02.2021 22:22 0,9 C 0,6 C -3,8 C 59 % 1031,9 hPa 0,0 l/m 0 min 0 min 0 W/m 3,2 km/h (1 Bft) 97,87 %
14.02.2021 22:24 0,9 C 0,6 C -3,8 C 59 % 1031,8 hPa 0,0 l/m 0 min 0 min 0 W/m 3,2 km/h (1 Bft) 97,83 %
14.02.2021 22:26 0,9 C 0,6 C -3,8 C 59 % 1031,9 hPa 0,0 l/m 0 min 0 min 0 W/m 3,2 km/h (1 Bft) 93,62 %
14.02.2021 22:28 0,9 C 0,6 C -3,8 C 59 % 1031,8 hPa 0,0 l/m 0 min 0 min 0 W/m 0,0 km/h (0 Bft) 97,87 %
14.02.2021 22:30 0,9 C 0,6 C -3,8 C 59 % 1031,8 hPa 0,0 l/m 0 min 0 min 0 W/m 3,2 km/h (1 Bft) 95,74 %
14.02.2021 22:32 0,9 C 0,0 C -3,8 C 59 % 1031,8 hPa 0,0 l/m 0 min 0 min 0 W/m 6,4 km/h (2 Bft) 95,74 %
14.02.2021 22:34 0,9 C 0,0 C -3,8 C 59 % 1031,7 hPa 0,0 l/m 0 min 0 min 0 W/m 3,2 km/h (1 Bft) 95,65 %
14.02.2021 22:36 0,8 C 0,0 C -3,8 C 59 % 1031,7 hPa 0,0 l/m 0 min 0 min 0 W/m 3,2 km/h (1 Bft) 93,62 %
14.02.2021 22:38 0,8 C 0,6 C -3,8 C 59 % 1031,6 hPa 0,0 l/m 0 min 0 min 0 W/m 0,0 km/h (0 Bft) 93,62 %
14.02.2021 22:40 0,8 C 0,0 C -3,8 C 59 % 1031,6 hPa 0,0 l/m 0 min 0 min 0 W/m 0,0 km/h (0 Bft) 93,62 %
14.02.2021 22:42 0,8 C 0,6 C -3,8 C 59 % 1031,6 hPa 0,0 l/m 0 min 0 min 0 W/m 12,9 km/h (3 Bft) 95,74 %
14.02.2021 22:44 0,8 C 0,6 C -3,8 C 59 % 1031,6 hPa 0,0 l/m 0 min 0 min 0 W/m 3,2 km/h (1 Bft) 95,74 %
14.02.2021 22:46 0,8 C 0,6 C -3,8 C 59 % 1031,6 hPa 0,0 l/m 0 min 0 min 0 W/m 3,2 km/h (1 Bft) 95,65 %
14.02.2021 22:48 0,8 C 0,6 C -3,8 C 59 % 1031,7 hPa 0,0 l/m 0 min 0 min 0 W/m 6,4 km/h (2 Bft) 95,74 %
14.02.2021 22:50 0,8 C 0,6 C -3,8 C 59 % 1031,6 hPa 0,0 l/m 0 min 0 min 0 W/m 6,4 km/h (2 Bft) 95,74 %
14.02.2021 22:52 0,8 C 0,6 C -3,8 C 59 % 1031,7 hPa 0,0 l/m 0 min 0 min 0 W/m 3,2 km/h (1 Bft) 95,74 %
14.02.2021 22:54 0,8 C 0,6 C -3,8 C 59 % 1031,7 hPa 0,0 l/m 0 min 0 min 0 W/m 6,4 km/h (2 Bft) 93,62 %
14.02.2021 22:56 0,8 C 0,6 C -3,8 C 60 % 1031,6 hPa 0,0 l/m 0 min 0 min 0 W/m 0,0 km/h (0 Bft) 95,74 %
14.02.2021 22:58 0,8 C 0,6 C -3,8 C 59 % 1031,7 hPa 0,0 l/m 0 min 0 min 0 W/m 3,2 km/h (1 Bft) 95,65 %
14.02.2021 23:00 0,8 C 0,6 C -3,8 C 59 % 1031,7 hPa 0,0 l/m 0 min 0 min 0 W/m 3,2 km/h (1 Bft) 93,62 %
14.02.2021 23:02 0,9 C 0,6 C -3,8 C 59 % 1031,7 hPa 0,0 l/m 0 min 0 min 0 W/m 0,0 km/h (0 Bft) 95,74 %
14.02.2021 23:04 0,8 C 0,0 C -3,8 C 59 % 1031,8 hPa 0,0 l/m 0 min 0 min 0 W/m 3,2 km/h (1 Bft) 95,74 %
14.02.2021 23:06 0,8 C 0,0 C -3,8 C 60 % 1031,7 hPa 0,0 l/m 0 min 0 min 0 W/m 3,2 km/h (1 Bft) 97,87 %
14.02.2021 23:08 0,8 C 0,6 C -3,8 C 59 % 1031,7 hPa 0,0 l/m 0 min 0 min 0 W/m 3,2 km/h (1 Bft) 95,74 %
14.02.2021 23:10 0,8 C 0,6 C -3,8 C 59 % 1031,7 hPa 0,0 l/m 0 min 0 min 0 W/m 3,2 km/h (1 Bft) 95,74 %
14.02.2021 23:12 0,8 C 0,6 C -3,8 C 59 % 1031,8 hPa 0,0 l/m 0 min 0 min 0 W/m 3,2 km/h (1 Bft) 97,83 %
14.02.2021 23:14 0,8 C 0,6 C -3,8 C 59 % 1031,7 hPa 0,0 l/m 0 min 0 min 0 W/m 3,2 km/h (1 Bft) 97,87 %
14.02.2021 23:16 0,9 C 0,6 C -3,8 C 59 % 1031,8 hPa 0,0 l/m 0 min 0 min 0 W/m 3,2 km/h (1 Bft) 97,87 %
14.02.2021 23:18 0,9 C 0,6 C -3,8 C 59 % 1031,7 hPa 0,0 l/m 0 min 0 min 0 W/m 3,2 km/h (1 Bft) 97,87 %
14.02.2021 23:20 0,9 C 0,6 C -3,8 C 59 % 1031,7 hPa 0,0 l/m 0 min 0 min 0 W/m 3,2 km/h (1 Bft) 100,00 %
14.02.2021 23:22 0,9 C 0,6 C -3,8 C 59 % 1031,7 hPa 0,0 l/m 0 min 0 min 0 W/m 12,9 km/h (3 Bft) 100,00 %
14.02.2021 23:24 0,9 C 0,6 C -3,8 C 59 % 1031,7 hPa 0,0 l/m 0 min 0 min 0 W/m 0,0 km/h (0 Bft) 100,00 %
14.02.2021 23:26 0,9 C 0,6 C -3,8 C 59 % 1031,7 hPa 0,0 l/m 0 min 0 min 0 W/m 0,0 km/h (0 Bft) 95,74 %
14.02.2021 23:28 0,8 C 0,6 C -3,8 C 59 % 1031,7 hPa 0,0 l/m 0 min 0 min 0 W/m 6,4 km/h (2 Bft) 100,00 %
14.02.2021 23:30 0,8 C 0,6 C -3,8 C 59 % 1031,7 hPa 0,0 l/m 0 min 0 min 0 W/m 0,0 km/h (0 Bft) 97,87 %
14.02.2021 23:32 0,9 C 0,6 C -3,8 C 59 % 1031,8 hPa 0,0 l/m 0 min 0 min 0 W/m 0,0 km/h (0 Bft) 97,87 %
14.02.2021 23:34 0,8 C 0,6 C -3,8 C 58 % 1031,8 hPa 0,0 l/m 0 min 0 min 0 W/m 3,2 km/h (1 Bft) 100,00 %
14.02.2021 23:36 0,9 C 0,6 C -3,8 C 58 % 1031,9 hPa 0,0 l/m 0 min 0 min 0 W/m 3,2 km/h (1 Bft) 97,87 %
14.02.2021 23:38 0,8 C 0,6 C -3,8 C 59 % 1031,9 hPa 0,0 l/m 0 min 0 min 0 W/m 3,2 km/h (1 Bft) 100,00 %
14.02.2021 23:40 0,8 C 0,6 C -3,8 C 58 % 1031,8 hPa 0,0 l/m 0 min 0 min 0 W/m 3,2 km/h (1 Bft) 100,00 %
14.02.2021 23:42 0,8 C 0,0 C -3,8 C 59 % 1031,9 hPa 0,0 l/m 0 min 0 min 0 W/m 3,2 km/h (1 Bft) 100,00 %
14.02.2021 23:44 0,8 C 0,6 C -3,8 C 58 % 1031,8 hPa 0,0 l/m 0 min 0 min 0 W/m 3,2 km/h (1 Bft) 100,00 %
14.02.2021 23:46 0,8 C 0,0 C -3,8 C 58 % 1031,9 hPa 0,0 l/m 0 min 0 min 0 W/m 3,2 km/h (1 Bft) 97,83 %
14.02.2021 23:48 0,8 C 0,0 C -3,8 C 58 % 1031,9 hPa 0,0 l/m 0 min 0 min 0 W/m 6,4 km/h (2 Bft) 100,00 %
14.02.2021 23:50 0,8 C 0,0 C -3,8 C 58 % 1031,8 hPa 0,0 l/m 0 min 0 min 0 W/m 3,2 km/h (1 Bft) 100,00 %
14.02.2021 23:52 0,8 C 0,0 C -3,8 C 58 % 1031,6 hPa 0,0 l/m 0 min 0 min 0 W/m 3,2 km/h (1 Bft) 97,87 %
14.02.2021 23:54 0,7 C 0,0 C -3,8 C 59 % 1031,6 hPa 0,0 l/m 0 min 0 min 0 W/m 3,2 km/h (1 Bft) 100,00 %
14.02.2021 23:56 0,7 C 0,0 C -3,8 C 59 % 1031,6 hPa 0,0 l/m 0 min 0 min 0 W/m 0,0 km/h (0 Bft) 100,00 %
14.02.2021 23:58 0,6 C 0,0 C -3,8 C 59 % 1031,7 hPa 0,0 l/m 0 min 0 min 0 W/m 3,2 km/h (1 Bft) 97,83 %
_ Min-Zeit 07:36 07:14 07:18 16:12 22:38 - - - - 00:00 00:02
Minimum _ -5,4 C -6,1 C -9,4 C 48 % 1031,6 hPa - - - - 0,0 km/h (0 Bft) 14,29 %
_ Max-Zeit 14:26 14:10 14:22 00:00 02:20 13:26 12:08 00:00 14:10 20:54 00:46
Maximum _ 4,4 C 8,3 C 7,3 C 80 % 1040,0 hPa 0,2 l/m 4 min 0 min 540 W/m 29,0 km/h
S-SO (5 Bft)
100,00 %
Durchschnitt _ -1,0 C -0,8 C -4,4 C 66 % 1036,7 hPa #0,8 l/m #5:48 h #0 min. 184 W/m 2,7 km/h (1 Bft) 96,97 %
© 2021 W. Hausmann